Observation data for Boys Ranch on 05/25/2019      Previous  Date  Next       Current Mesonet Observations  Soil Data  Daily Summary Page  Observations in Plain Language
KBY1 250500Z 34001KT 19/14 A2992 RMK A01 T01860143  RH  076%=      5-min Rain = 0
KBY1 250501Z 00002KT 19/14 A2992 RMK A01 T01850144  RH  077%=      5-min Rain = 0
KBY1 250502Z 07001KT 18/14 A2993 RMK A01 T01840144  RH  078%=      5-min Rain = 0
KBY1 250503Z 05002KT 18/14 A2992 RMK A01 T01840143  RH  077%=      5-min Rain = 0
KBY1 250504Z 04002KT 19/14 A2992 RMK A01 T01850143  RH  077%=      5-min Rain = 0
KBY1 250505Z 04002KT 19/14 A2992 RMK A01 T01860144  RH  076%=      5-min Rain = 0
KBY1 250506Z 04002KT 19/14 A2992 RMK A01 T01860143  RH  076%=      5-min Rain = 0
KBY1 250507Z 06001KT 19/14 A2992 RMK A01 T01860144  RH  076%=      5-min Rain = 0
KBY1 250508Z 03001KT 19/14 A2993 RMK A01 T01870144  RH  076%=      5-min Rain = 0
KBY1 250509Z 03002KT 19/14 A2993 RMK A01 T01870144  RH  076%=      5-min Rain = 0
KBY1 250510Z 02001KT 19/14 A2993 RMK A01 T01860144  RH  076%=      5-min Rain = 0
KBY1 250511Z 01001KT 19/14 A2993 RMK A01 T01870144  RH  076%=      5-min Rain = 0
KBY1 250512Z 35002KT 19/14 A2993 RMK A01 T01860143  RH  076%=      5-min Rain = 0
KBY1 250513Z 35001KT 19/14 A2993 RMK A01 T01870144  RH  076%=      5-min Rain = 0
KBY1 250514Z 03002KT 19/14 A2993 RMK A01 T01870144  RH  076%=      5-min Rain = 0
KBY1 250515Z 01002KT 19/14 A2993 RMK A01 T01860144  RH  076%=      5-min Rain = 0
KBY1 250516Z 01001KT 19/14 A2993 RMK A01 T01850144  RH  077%=      5-min Rain = 0
KBY1 250517Z 35001KT 18/15 A2993 RMK A01 T01830145  RH  078%=      5-min Rain = 0
KBY1 250518Z 02000KT 18/14 A2993 RMK A01 T01810144  RH  079%=      5-min Rain = 0
KBY1 250519Z 02002KT 18/14 A2993 RMK A01 T01810144  RH  079%=      5-min Rain = 0
KBY1 250520Z 34001KT 18/14 A2992 RMK A01 T01800143  RH  079%=      5-min Rain = 0
KBY1 250521Z 30001KT 18/14 A2993 RMK A01 T01810143  RH  078%=      5-min Rain = 0
KBY1 250522Z 25001KT 18/14 A2992 RMK A01 T01800142  RH  078%=      5-min Rain = 0
KBY1 250523Z 18000KT 18/14 A2993 RMK A01 T01780142  RH  080%=      5-min Rain = 0
KBY1 250524Z 08001KT 18/14 A2992 RMK A01 T01760143  RH  081%=      5-min Rain = 0
KBY1 250525Z 02001KT 18/14 A2993 RMK A01 T01750143  RH  081%=      5-min Rain = 0
KBY1 250526Z 18002KT 18/14 A2992 RMK A01 T01760143  RH  081%=      5-min Rain = 0
KBY1 250527Z 14003KT 18/14 A2992 RMK A01 T01780144  RH  080%=      5-min Rain = 0
KBY1 250528Z 18002KT 18/15 A2992 RMK A01 T01810145  RH  080%=      5-min Rain = 0
KBY1 250529Z 20006KT 18/15 A2992 RMK A01 T01840148  RH  079%=      5-min Rain = 0
KBY1 250530Z 18005KT 19/15 A2992 RMK A01 T01880149  RH  078%=      5-min Rain = 0
KBY1 250531Z 19007KT 19/15 A2992 RMK A01 T01910149  RH  076%=      5-min Rain = 0
KBY1 250532Z 16005KT 20/15 A2992 RMK A01 T01950150  RH  075%=      5-min Rain = 0
KBY1 250533Z 19006KT 20/15 A2992 RMK A01 T01970150  RH  074%=      5-min Rain = 0
KBY1 250534Z 18008KT 20/15 A2992 RMK A01 T01980149  RH  074%=      5-min Rain = 0
KBY1 250535Z 20010KT 20/15 A2992 RMK A01 T01990149  RH  073%=      5-min Rain = 0
KBY1 250536Z 20010G15KT 20/15 A2992 RMK A01 T02000148  RH  072%=      5-min Rain = 0
KBY1 250537Z 18011G17KT 20/15 A2992 RMK A01 T02020149  RH  072%=      5-min Rain = 0
KBY1 250538Z 19011KT 20/15 A2992 RMK A01 T02020149  RH  071%=      5-min Rain = 0
KBY1 250539Z 20012KT 20/15 A2992 RMK A01 T02020148  RH  071%=      5-min Rain = 0
KBY1 250540Z 19011KT 20/15 A2992 RMK A01 T02020148  RH  071%=      5-min Rain = 0
KBY1 250541Z 19010KT 20/15 A2992 RMK A01 T02020149  RH  071%=      5-min Rain = 0
KBY1 250542Z 20014G21KT 20/15 A2992 RMK A01 T02010148  RH  072%=      5-min Rain = 0
KBY1 250543Z 20015KT 20/15 A2991 RMK A01 T02010147  RH  071%=      5-min Rain = 0
KBY1 250544Z 20013KT 20/15 A2992 RMK A01 T02020147  RH  071%=      5-min Rain = 0
KBY1 250545Z 20014G20KT 20/15 A2991 RMK A01 T02020147  RH  071%=      5-min Rain = 0
KBY1 250546Z 20013KT 20/15 A2992 RMK A01 T02030148  RH  071%=      5-min Rain = 0
KBY1 250547Z 20014KT 20/15 A2991 RMK A01 T02030148  RH  071%=      5-min Rain = 0
KBY1 250548Z 20015KT 20/15 A2992 RMK A01 T02030148  RH  071%=      5-min Rain = 0
KBY1 250549Z 20017G22KT 20/15 A2991 RMK A01 T02030148  RH  071%=      5-min Rain = 0
KBY1 250550Z 20016KT 20/15 A2991 RMK A01 T02030148  RH  070%=      5-min Rain = 0
KBY1 250551Z 19017KT 20/15 A2991 RMK A01 T02030148  RH  070%=      5-min Rain = 0
KBY1 250552Z 19015G20KT 20/15 A2992 RMK A01 T02030148  RH  071%=      5-min Rain = 0
KBY1 250553Z 20015KT 20/15 A2992 RMK A01 T02030148  RH  071%=      5-min Rain = 0
KBY1 250554Z 19013KT 20/15 A2992 RMK A01 T02040149  RH  071%=      5-min Rain = 0
KBY1 250555Z 20015KT 20/15 A2992 RMK A01 T02030150  RH  071%=      5-min Rain = 0
KBY1 250556Z 20013KT 20/15 A2992 RMK A01 T02030149  RH  071%=      5-min Rain = 0
KBY1 250557Z 20015KT 20/15 A2992 RMK A01 T02030149  RH  071%=      5-min Rain = 0
KBY1 250558Z 19016G21KT 20/15 A2992 RMK A01 T02030149  RH  071%=      5-min Rain = 0
KBY1 250559Z 19020G26KT 20/15 A2991 RMK A01 T02040150  RH  071%=      5-min Rain = 0
KBY1 250600Z 19016G21KT 20/15 A2992 RMK A01 T02040150  RH  071%=      5-min Rain = 0
KBY1 250601Z 20016G23KT 21/15 A2992 RMK A01 T02050150  RH  071%=      5-min Rain = 0
KBY1 250602Z 20015KT 21/15 A2992 RMK A01 T02050151  RH  071%=      5-min Rain = 0
KBY1 250603Z 20018G25KT 21/15 A2991 RMK A01 T02050152  RH  071%=      5-min Rain = 0
KBY1 250604Z 20017KT 21/15 A2991 RMK A01 T02050151  RH  071%=      5-min Rain = 0
KBY1 250605Z 19017G22KT 21/15 A2992 RMK A01 T02060151  RH  071%=      5-min Rain = 0
KBY1 250606Z 20015G22KT 21/15 A2991 RMK A01 T02060151  RH  071%=      5-min Rain = 0
KBY1 250607Z 19016KT 21/15 A2992 RMK A01 T02060152  RH  071%=      5-min Rain = 0
KBY1 250608Z 20017G22KT 21/15 A2991 RMK A01 T02050152  RH  072%=      5-min Rain = 0
KBY1 250609Z 20016G21KT 21/15 A2992 RMK A01 T02050152  RH  072%=      5-min Rain = 0
KBY1 250610Z 20016G21KT 21/15 A2991 RMK A01 T02050152  RH  072%=      5-min Rain = 0
KBY1 250611Z 20015KT 21/15 A2992 RMK A01 T02060152  RH  071%=      5-min Rain = 0
KBY1 250612Z 19016G21KT 21/15 A2992 RMK A01 T02060153  RH  071%=      5-min Rain = 0
KBY1 250613Z 20020KT 21/15 A2991 RMK A01 T02060153  RH  071%=      5-min Rain = 0
KBY1 250614Z 19018KT 21/15 A2991 RMK A01 T02070153  RH  071%=      5-min Rain = 0
KBY1 250615Z 19022G29KT 21/15 A2991 RMK A01 T02080153  RH  071%=      5-min Rain = 0
KBY1 250616Z 19017G22KT 21/15 A2991 RMK A01 T02080153  RH  071%=      5-min Rain = 0
KBY1 250617Z 20019G25KT 21/15 A2991 RMK A01 T02080154  RH  071%=      5-min Rain = 0
KBY1 250618Z 20020KT 21/15 A2991 RMK A01 T02080154  RH  071%=      5-min Rain = 0
KBY1 250619Z 19019G26KT 21/15 A2992 RMK A01 T02080154  RH  071%=      5-min Rain = 0
KBY1 250620Z 19021G27KT 21/15 A2991 RMK A01 T02080154  RH  071%=      5-min Rain = 0
KBY1 250621Z 19015G21KT 21/15 A2992 RMK A01 T02090154  RH  071%=      5-min Rain = 0
KBY1 250622Z 19016G22KT 21/15 A2992 RMK A01 T02080154  RH  071%=      5-min Rain = 0
KBY1 250623Z 19021KT 21/15 A2991 RMK A01 T02080154  RH  072%=      5-min Rain = 0
KBY1 250624Z 19020G31KT 21/15 A2991 RMK A01 T02080154  RH  071%=      5-min Rain = 0
KBY1 250625Z 20021G27KT 21/15 A2991 RMK A01 T02080154  RH  071%=      5-min Rain = 0
KBY1 250626Z 20019KT 21/16 A2992 RMK A01 T02090155  RH  071%=      5-min Rain = 0
KBY1 250627Z 20015G20KT 21/16 A2992 RMK A01 T02090155  RH  071%=      5-min Rain = 0
KBY1 250628Z 20019G27KT 21/16 A2992 RMK A01 T02080156  RH  072%=      5-min Rain = 0
KBY1 250629Z 19020G25KT 21/16 A2992 RMK A01 T02080156  RH  072%=      5-min Rain = 0
KBY1 250630Z 20023G28KT 21/16 A2992 RMK A01 T02080156  RH  072%=      5-min Rain = 0
KBY1 250631Z 20017KT 21/16 A2992 RMK A01 T02090157  RH  072%=      5-min Rain = 0
KBY1 250632Z 20016G21KT 21/16 A2992 RMK A01 T02090157  RH  072%=      5-min Rain = 0
KBY1 250633Z 19020KT 21/16 A2992 RMK A01 T02080157  RH  072%=      5-min Rain = 0
KBY1 250634Z 19016KT 21/16 A2992 RMK A01 T02080157  RH  072%=      5-min Rain = 0
KBY1 250635Z 19018G25KT 21/16 A2992 RMK A01 T02080157  RH  072%=      5-min Rain = 0
KBY1 250636Z 20020G26KT 21/16 A2992 RMK A01 T02080157  RH  072%=      5-min Rain = 0
KBY1 250637Z 19018KT 21/16 A2992 RMK A01 T02090157  RH  072%=      5-min Rain = 0
KBY1 250638Z 20020G26KT 21/16 A2992 RMK A01 T02090157  RH  072%=      5-min Rain = 0
KBY1 250639Z 19018KT 21/16 A2992 RMK A01 T02100158  RH  072%=      5-min Rain = 0
KBY1 250640Z 19017G24KT 21/16 A2992 RMK A01 T02100158  RH  072%=      5-min Rain = 0
KBY1 250641Z 19016G21KT 21/16 A2992 RMK A01 T02100159  RH  073%=      5-min Rain = 0
KBY1 250642Z 20015G21KT 21/16 A2992 RMK A01 T02090158  RH  073%=      5-min Rain = 0
KBY1 250643Z 19013G18KT 21/16 A2992 RMK A01 T02090159  RH  073%=      5-min Rain = 0
KBY1 250644Z 19017KT 21/16 A2992 RMK A01 T02080158  RH  073%=      5-min Rain = 0
KBY1 250645Z 19015G21KT 21/16 A2992 RMK A01 T02080158  RH  073%=      5-min Rain = 0
KBY1 250646Z 19016KT 21/16 A2992 RMK A01 T02090158  RH  073%=      5-min Rain = 0
KBY1 250647Z 18019KT 21/16 A2992 RMK A01 T02080159  RH  073%=      5-min Rain = 0
KBY1 250648Z 20014G19KT 21/16 A2992 RMK A01 T02090159  RH  073%=      5-min Rain = 0
KBY1 250649Z 19015KT 21/16 A2992 RMK A01 T02080158  RH  073%=      5-min Rain = 0
KBY1 250650Z 19017KT 21/16 A2992 RMK A01 T02080159  RH  073%=      5-min Rain = 0
KBY1 250651Z 19015KT 21/16 A2992 RMK A01 T02080159  RH  073%=      5-min Rain = 0
KBY1 250652Z 19018G23KT 21/16 A2992 RMK A01 T02070159  RH  074%=      5-min Rain = 0
KBY1 250653Z 19013KT 21/16 A2992 RMK A01 T02080159  RH  074%=      5-min Rain = 0
KBY1 250654Z 19019KT 21/16 A2992 RMK A01 T02070159  RH  074%=      5-min Rain = 0
KBY1 250655Z 19015KT 21/16 A2992 RMK A01 T02070159  RH  074%=      5-min Rain = 0
KBY1 250656Z 19017KT 21/16 A2992 RMK A01 T02070160  RH  074%=      5-min Rain = 0
KBY1 250657Z 19014G20KT 21/16 A2992 RMK A01 T02070160  RH  074%=      5-min Rain = 0
KBY1 250658Z 19014G19KT 21/16 A2992 RMK A01 T02070160  RH  074%=      5-min Rain = 0
KBY1 250659Z 19018KT 21/16 A2992 RMK A01 T02070160  RH  074%=      5-min Rain = 0
KBY1 250700Z 19014KT 21/16 A2992 RMK A01 T02060160  RH  075%=      5-min Rain = 0
KBY1 250701Z 18016G22KT 21/16 A2992 RMK A01 T02070160  RH  075%=      5-min Rain = 0
KBY1 250702Z 18015KT 21/16 A2992 RMK A01 T02060160  RH  075%=      5-min Rain = 0
KBY1 250703Z 19013KT 21/16 A2992 RMK A01 T02060160  RH  075%=      5-min Rain = 0
KBY1 250704Z 19015KT 21/16 A2992 RMK A01 T02060161  RH  075%=      5-min Rain = 0
KBY1 250705Z 19014G20KT 21/16 A2992 RMK A01 T02060161  RH  075%=      5-min Rain = 0
KBY1 250706Z 18014KT 21/16 A2991 RMK A01 T02060161  RH  075%=      5-min Rain = 0
KBY1 250707Z 18014KT 21/16 A2992 RMK A01 T02060161  RH  075%=      5-min Rain = 0
KBY1 250708Z 19014KT 21/16 A2991 RMK A01 T02060161  RH  076%=      5-min Rain = 0
KBY1 250709Z 19011KT 21/16 A2992 RMK A01 T02050162  RH  076%=      5-min Rain = 0
KBY1 250710Z 19014KT 20/16 A2992 RMK A01 T02040162  RH  076%=      5-min Rain = 0
KBY1 250711Z 18014KT 21/16 A2992 RMK A01 T02050162  RH  077%=      5-min Rain = 0
KBY1 250712Z 18016KT 20/16 A2992 RMK A01 T02040162  RH  077%=      5-min Rain = 0
KBY1 250713Z 19012KT 20/16 A2992 RMK A01 T02040162  RH  077%=      5-min Rain = 0
KBY1 250714Z 18013KT 20/16 A2992 RMK A01 T02040162  RH  077%=      5-min Rain = 0
KBY1 250715Z 19013KT 20/16 A2992 RMK A01 T02040162  RH  077%=      5-min Rain = 0
KBY1 250716Z 19012KT 20/16 A2992 RMK A01 T02030162  RH  077%=      5-min Rain = 0
KBY1 250717Z 18011KT 20/16 A2992 RMK A01 T02030162  RH  077%=      5-min Rain = 0
KBY1 250718Z 19014G20KT 20/16 A2992 RMK A01 T02030162  RH  077%=      5-min Rain = 0
KBY1 250719Z 19014KT 20/16 A2992 RMK A01 T02020162  RH  077%=      5-min Rain = 0
KBY1 250720Z 19011KT 20/16 A2992 RMK A01 T02030162  RH  077%=      5-min Rain = 0
KBY1 250721Z 19011G16KT 20/16 A2992 RMK A01 T02020162  RH  078%=      5-min Rain = 0
KBY1 250722Z 19014KT 20/16 A2992 RMK A01 T02020162  RH  078%=      5-min Rain = 0
KBY1 250723Z 18010KT 20/16 A2992 RMK A01 T02020162  RH  078%=      5-min Rain = 0
KBY1 250724Z 19010KT 20/16 A2992 RMK A01 T02020162  RH  078%=      5-min Rain = 0
KBY1 250725Z 18011KT 20/16 A2992 RMK A01 T02010163  RH  078%=      5-min Rain = 0
KBY1 250726Z 18009KT 20/16 A2992 RMK A01 T02010162  RH  078%=      5-min Rain = 0
KBY1 250727Z 18011KT 20/16 A2992 RMK A01 T02000162  RH  079%=      5-min Rain = 0
KBY1 250728Z 18012G17KT 20/16 A2992 RMK A01 T02000163  RH  079%=      5-min Rain = 0
KBY1 250729Z 18011G17KT 20/16 A2992 RMK A01 T02000163  RH  079%=      5-min Rain = 0
KBY1 250730Z 18010G15KT 20/16 A2992 RMK A01 T02000163  RH  079%=      5-min Rain = 0
KBY1 250731Z 18010KT 20/16 A2992 RMK A01 T02000163  RH  079%=      5-min Rain = 0
KBY1 250732Z 18010KT 20/16 A2992 RMK A01 T02000163  RH  079%=      5-min Rain = 0
KBY1 250733Z 18009KT 20/16 A2992 RMK A01 T02000164  RH  079%=      5-min Rain = 0
KBY1 250734Z 18010KT 20/16 A2992 RMK A01 T01990164  RH  080%=      5-min Rain = 0
KBY1 250735Z 19012KT 20/16 A2992 RMK A01 T01990164  RH  080%=      5-min Rain = 0
KBY1 250736Z 18010G15KT 20/17 A2992 RMK A01 T02000165  RH  080%=      5-min Rain = 0
KBY1 250737Z 18011G18KT 20/17 A2992 RMK A01 T02000165  RH  080%=      5-min Rain = 0
KBY1 250738Z 17010KT 20/17 A2992 RMK A01 T02010165  RH  080%=      5-min Rain = 0
KBY1 250739Z 18008KT 20/17 A2992 RMK A01 T02010166  RH  080%=      5-min Rain = 0
KBY1 250740Z 17007KT 20/17 A2992 RMK A01 T02010166  RH  081%=      5-min Rain = 0
KBY1 250741Z 17007G12KT 20/17 A2992 RMK A01 T01990166  RH  081%=      5-min Rain = 0
KBY1 250742Z 17008G14KT 20/17 A2992 RMK A01 T01990166  RH  082%=      5-min Rain = 0
KBY1 250743Z 17010KT 20/17 A2992 RMK A01 T01990167  RH  082%=      5-min Rain = 0
KBY1 250744Z 18007KT 20/17 A2992 RMK A01 T01990166  RH  081%=      5-min Rain = 0
KBY1 250745Z 17009KT 20/17 A2992 RMK A01 T01990166  RH  081%=      5-min Rain = 0
KBY1 250746Z 17007G13KT 20/17 A2992 RMK A01 T02000167  RH  081%=      5-min Rain = 0
KBY1 250747Z 17009KT 20/17 A2992 RMK A01 T02000167  RH  082%=      5-min Rain = 0
KBY1 250748Z 16007KT 20/17 A2992 RMK A01 T02000167  RH  081%=      5-min Rain = 0
KBY1 250749Z 15007KT 20/17 A2992 RMK A01 T01990167  RH  082%=      5-min Rain = 0
KBY1 250750Z 16007KT 20/17 A2993 RMK A01 T01990167  RH  082%=      5-min Rain = 0
KBY1 250751Z 17006G11KT 20/17 A2993 RMK A01 T01980167  RH  082%=      5-min Rain = 0
KBY1 250752Z 16007G12KT 20/17 A2993 RMK A01 T01980167  RH  082%=      5-min Rain = 0
KBY1 250753Z 16005KT 20/17 A2993 RMK A01 T01980167  RH  082%=      5-min Rain = 0
KBY1 250754Z 15007G12KT 20/17 A2993 RMK A01 T01980168  RH  082%=      5-min Rain = 0
KBY1 250755Z 15008KT 20/17 A2993 RMK A01 T01980168  RH  083%=      5-min Rain = 0
KBY1 250756Z 15009KT 20/17 A2993 RMK A01 T01980168  RH  083%=      5-min Rain = 0
KBY1 250757Z 16007KT 20/17 A2993 RMK A01 T01980168  RH  083%=      5-min Rain = 0
KBY1 250758Z 14006KT 20/17 A2993 RMK A01 T01980168  RH  083%=      5-min Rain = 0
KBY1 250759Z 14007KT 20/17 A2993 RMK A01 T01980168  RH  083%=      5-min Rain = 0
KBY1 250800Z 14007KT 20/17 A2993 RMK A01 T01980168  RH  083%=      5-min Rain = 0
KBY1 250801Z 14008KT 20/17 A2993 RMK A01 T01970168  RH  083%=      5-min Rain = 0
KBY1 250802Z 14008KT 20/17 A2993 RMK A01 T01970168  RH  083%=      5-min Rain = 0
KBY1 250803Z 12006KT 20/17 A2993 RMK A01 T01970168  RH  083%=      5-min Rain = 0
KBY1 250804Z 10007KT 20/17 A2993 RMK A01 T01970168  RH  084%=      5-min Rain = 0
KBY1 250805Z 10006KT 20/17 A2993 RMK A01 T01960168  RH  084%=      5-min Rain = 0
KBY1 250806Z 10006KT 20/17 A2993 RMK A01 T01950167  RH  084%=      5-min Rain = 0
KBY1 250807Z 10006KT 19/17 A2993 RMK A01 T01940167  RH  085%=      5-min Rain = 0
KBY1 250808Z 08005KT 19/17 A2993 RMK A01 T01930166  RH  085%=      5-min Rain = 0
KBY1 250809Z 07006KT 19/17 A2993 RMK A01 T01910165  RH  085%=      5-min Rain = 0
KBY1 250810Z 05006KT 19/16 A2993 RMK A01 T01900164  RH  085%=      5-min Rain = 0
KBY1 250811Z 06006KT 19/16 A2993 RMK A01 T01900164  RH  085%=      5-min Rain = 0
KBY1 250812Z 06006KT 19/16 A2993 RMK A01 T01880162  RH  085%=      5-min Rain = 0
KBY1 250813Z 06006KT 19/16 A2993 RMK A01 T01880162  RH  085%=      5-min Rain = 0
KBY1 250814Z 06006KT 19/16 A2993 RMK A01 T01870161  RH  085%=      5-min Rain = 0
KBY1 250815Z 06005KT 19/16 A2993 RMK A01 T01870160  RH  085%=      5-min Rain = 0
KBY1 250816Z 06006KT 19/16 A2993 RMK A01 T01860160  RH  085%=      5-min Rain = 0
KBY1 250817Z 06008KT 19/16 A2993 RMK A01 T01850159  RH  085%=      5-min Rain = 0
KBY1 250818Z 06007KT 19/16 A2993 RMK A01 T01850159  RH  085%=      5-min Rain = 0
KBY1 250819Z 06007KT 19/16 A2993 RMK A01 T01850159  RH  085%=      5-min Rain = 0
KBY1 250820Z 06007KT 19/16 A2992 RMK A01 T01850159  RH  085%=      5-min Rain = 0
KBY1 250821Z 06008KT 18/16 A2992 RMK A01 T01840160  RH  085%=      5-min Rain = 0
KBY1 250822Z 06007KT 19/16 A2992 RMK A01 T01850160  RH  085%=      5-min Rain = 0
KBY1 250823Z 06006KT 19/16 A2992 RMK A01 T01850160  RH  085%=      5-min Rain = 0
KBY1 250824Z 06006KT 19/16 A2993 RMK A01 T01850160  RH  085%=      5-min Rain = 0
KBY1 250825Z 05006KT 19/16 A2992 RMK A01 T01860160  RH  085%=      5-min Rain = 0
KBY1 250826Z 05006KT 19/16 A2992 RMK A01 T01870160  RH  085%=      5-min Rain = 0
KBY1 250827Z 06006KT 19/16 A2993 RMK A01 T01870161  RH  085%=      5-min Rain = 0
KBY1 250828Z 06008KT 19/16 A2992 RMK A01 T01870161  RH  085%=      5-min Rain = 0
KBY1 250829Z 05008KT 19/16 A2992 RMK A01 T01880161  RH  084%=      5-min Rain = 0
KBY1 250830Z 05009KT 19/16 A2992 RMK A01 T01890162  RH  084%=      5-min Rain = 0
KBY1 250831Z 05007KT 19/16 A2992 RMK A01 T01890162  RH  084%=      5-min Rain = 0
KBY1 250832Z 05006KT 19/16 A2992 RMK A01 T01900162  RH  084%=      5-min Rain = 0
KBY1 250833Z 05006KT 19/16 A2992 RMK A01 T01900163  RH  084%=      5-min Rain = 0
KBY1 250834Z 06006KT 19/16 A2993 RMK A01 T01900164  RH  085%=      5-min Rain = 0
KBY1 250835Z 06006KT 19/17 A2993 RMK A01 T01900165  RH  085%=      5-min Rain = 0
KBY1 250836Z 06006KT 19/17 A2993 RMK A01 T01900165  RH  085%=      5-min Rain = 0
KBY1 250837Z 06007KT 19/17 A2993 RMK A01 T01910166  RH  085%=      5-min Rain = 0
KBY1 250838Z 07006KT 19/17 A2993 RMK A01 T01920166  RH  085%=      5-min Rain = 0
KBY1 250839Z 06005KT 19/17 A2993 RMK A01 T01920166  RH  085%=      5-min Rain = 0
KBY1 250840Z 07007KT 19/17 A2993 RMK A01 T01930167  RH  085%=      5-min Rain = 0
KBY1 250841Z 09008KT 19/17 A2993 RMK A01 T01930168  RH  085%=      5-min Rain = 0
KBY1 250842Z 07007KT 19/17 A2993 RMK A01 T01940168  RH  085%=      5-min Rain = 0
KBY1 250843Z 09006KT 19/17 A2993 RMK A01 T01940168  RH  085%=      5-min Rain = 0
KBY1 250844Z 08007KT 19/17 A2993 RMK A01 T01940168  RH  085%=      5-min Rain = 0
KBY1 250845Z 10006KT 20/17 A2993 RMK A01 T01950169  RH  085%=      5-min Rain = 0
KBY1 250846Z 11003KT 20/17 A2993 RMK A01 T01950168  RH  085%=      5-min Rain = 0
KBY1 250847Z 10002KT 20/17 A2993 RMK A01 T01950168  RH  085%=      5-min Rain = 0
KBY1 250848Z 10005KT 20/17 A2993 RMK A01 T01950168  RH  084%=      5-min Rain = 0
KBY1 250849Z 10005KT 19/17 A2993 RMK A01 T01930167  RH  085%=      5-min Rain = 0
KBY1 250850Z 10006KT 19/17 A2992 RMK A01 T01920167  RH  085%=      5-min Rain = 0
KBY1 250851Z 13006KT 19/17 A2992 RMK A01 T01920168  RH  086%=      5-min Rain = 0
KBY1 250852Z 14006KT 19/17 A2992 RMK A01 T01920170  RH  087%=      5-min Rain = 0
KBY1 250853Z 12006KT 19/17 A2992 RMK A01 T01930169  RH  086%=      5-min Rain = 0
KBY1 250854Z 14006KT 19/17 A2992 RMK A01 T01930168  RH  086%=      5-min Rain = 0
KBY1 250855Z 14006KT 19/17 A2992 RMK A01 T01920169  RH  086%=      5-min Rain = 0
KBY1 250856Z 15007KT 19/17 A2992 RMK A01 T01920169  RH  087%=      5-min Rain = 0
KBY1 250857Z 16005KT 19/17 A2992 RMK A01 T01920169  RH  087%=      5-min Rain = 0
KBY1 250858Z 15004KT 19/17 A2992 RMK A01 T01910169  RH  087%=      5-min Rain = 0
KBY1 250859Z 15006KT 19/17 A2992 RMK A01 T01900169  RH  087%=      5-min Rain = 0
KBY1 250900Z 15007KT 19/17 A2992 RMK A01 T01900170  RH  088%=      5-min Rain = 0
KBY1 250901Z 16005KT 19/17 A2992 RMK A01 T01910170  RH  088%=      5-min Rain = 0
KBY1 250902Z 15005KT 19/17 A2992 RMK A01 T01910170  RH  088%=      5-min Rain = 0
KBY1 250903Z 15008KT 19/17 A2992 RMK A01 T01900170  RH  088%=      5-min Rain = 0
KBY1 250904Z 16007KT 19/17 A2992 RMK A01 T01910170  RH  088%=      5-min Rain = 0
KBY1 250905Z 17006KT 19/17 A2992 RMK A01 T01910171  RH  088%=      5-min Rain = 0
KBY1 250906Z 16008KT 19/17 A2992 RMK A01 T01910171  RH  088%=      5-min Rain = 0
KBY1 250907Z 17009KT 19/17 A2993 RMK A01 T01910170  RH  088%=      5-min Rain = 0
KBY1 250908Z 18010KT 19/17 A2992 RMK A01 T01920171  RH  088%=      5-min Rain = 0
KBY1 250909Z 17007KT 19/17 A2993 RMK A01 T01930172  RH  088%=      5-min Rain = 0
KBY1 250910Z 17006KT 19/17 A2993 RMK A01 T01940172  RH  087%=      5-min Rain = 0
KBY1 250911Z 17006KT 19/17 A2993 RMK A01 T01930171  RH  087%=      5-min Rain = 0
KBY1 250912Z 18004KT 19/17 A2993 RMK A01 T01920171  RH  088%=      5-min Rain = 0
KBY1 250913Z 18005KT 19/17 A2993 RMK A01 T01910171  RH  088%=      5-min Rain = 0
KBY1 250914Z 16005KT 19/17 A2993 RMK A01 T01920171  RH  088%=      5-min Rain = 0
KBY1 250915Z 16004KT 19/17 A2993 RMK A01 T01910170  RH  088%=      5-min Rain = 0
KBY1 250916Z 16004KT 19/17 A2993 RMK A01 T01910170  RH  088%=      5-min Rain = 0
KBY1 250917Z 16004KT 19/17 A2993 RMK A01 T01900170  RH  088%=      5-min Rain = 0
KBY1 250918Z 16003KT 19/17 A2993 RMK A01 T01890170  RH  088%=      5-min Rain = 0
KBY1 250919Z 15003KT 19/17 A2993 RMK A01 T01880169  RH  089%=      5-min Rain = 0
KBY1 250920Z 16007KT 19/17 A2993 RMK A01 T01880170  RH  089%=      5-min Rain = 0
KBY1 250921Z 15005KT 19/17 A2993 RMK A01 T01880171  RH  089%=      5-min Rain = 0
KBY1 250922Z 16005KT 19/17 A2993 RMK A01 T01890170  RH  089%=      5-min Rain = 0
KBY1 250923Z 16005KT 19/17 A2993 RMK A01 T01890170  RH  089%=      5-min Rain = 0
KBY1 250924Z 17004KT 19/17 A2993 RMK A01 T01890171  RH  089%=      5-min Rain = 0
KBY1 250925Z 18003KT 19/17 A2993 RMK A01 T01890170  RH  089%=      5-min Rain = 0
KBY1 250926Z 16003KT 19/17 A2993 RMK A01 T01880170  RH  089%=      5-min Rain = 0
KBY1 250927Z 14003KT 19/17 A2993 RMK A01 T01880171  RH  089%=      5-min Rain = 0
KBY1 250928Z 16002KT 19/17 A2993 RMK A01 T01890171  RH  089%=      5-min Rain = 0
KBY1 250929Z 17002KT 19/17 A2993 RMK A01 T01880170  RH  089%=      5-min Rain = 0
KBY1 250930Z 15003KT 19/17 A2993 RMK A01 T01880170  RH  089%=      5-min Rain = 0
KBY1 250931Z 14005KT 19/17 A2993 RMK A01 T01870170  RH  089%=      5-min Rain = 0
KBY1 250932Z 14004KT 19/17 A2993 RMK A01 T01870171  RH  090%=      5-min Rain = 0
KBY1 250933Z 11003KT 19/17 A2993 RMK A01 T01870170  RH  089%=      5-min Rain = 0
KBY1 250934Z 15001KT 19/17 A2993 RMK A01 T01870170  RH  089%=      5-min Rain = 0
KBY1 250935Z 16002KT 19/17 A2993 RMK A01 T01870169  RH  090%=      5-min Rain = 0
KBY1 250936Z 12001KT 19/17 A2993 RMK A01 T01860170  RH  090%=      5-min Rain = 0
KBY1 250937Z 07002KT 19/17 A2993 RMK A01 T01860170  RH  090%=      5-min Rain = 0
KBY1 250938Z 14003KT 19/17 A2993 RMK A01 T01860169  RH  090%=      5-min Rain = 0
KBY1 250939Z 12004KT 19/17 A2993 RMK A01 T01860169  RH  090%=      5-min Rain = 0
KBY1 250940Z 14006KT 19/17 A2993 RMK A01 T01850168  RH  090%=      5-min Rain = 0
KBY1 250941Z 14006KT 19/17 A2993 RMK A01 T01850171  RH  091%=      5-min Rain = 0
KBY1 250942Z 11006KT 19/17 A2993 RMK A01 T01860171  RH  091%=      5-min Rain = 0
KBY1 250943Z 15006KT 19/17 A2993 RMK A01 T01870170  RH  090%=      5-min Rain = 0
KBY1 250944Z 13003KT 19/17 A2993 RMK A01 T01870170  RH  090%=      5-min Rain = 0
KBY1 250945Z 15002KT 19/17 A2993 RMK A01 T01870171  RH  090%=      5-min Rain = 0
KBY1 250946Z 13004KT 19/17 A2993 RMK A01 T01870170  RH  090%=      5-min Rain = 0
KBY1 250947Z 17008KT 19/17 A2993 RMK A01 T01870171  RH  090%=      5-min Rain = 0
KBY1 250948Z 17008KT 19/17 A2993 RMK A01 T01880172  RH  090%=      5-min Rain = 0
KBY1 250949Z 13005KT 19/17 A2993 RMK A01 T01890172  RH  089%=      5-min Rain = 0
KBY1 250950Z 17003KT 19/17 A2993 RMK A01 T01900171  RH  089%=      5-min Rain = 0
KBY1 250951Z 17004KT 19/17 A2993 RMK A01 T01890172  RH  089%=      5-min Rain = 0
KBY1 250952Z 11004KT 19/17 A2993 RMK A01 T01890171  RH  090%=      5-min Rain = 0
KBY1 250953Z 13004KT 19/17 A2993 RMK A01 T01890171  RH  090%=      5-min Rain = 0
KBY1 250954Z 13003KT 19/17 A2993 RMK A01 T01880170  RH  090%=      5-min Rain = 0
KBY1 250955Z 15005KT 19/17 A2993 RMK A01 T01860169  RH  090%=      5-min Rain = 0
KBY1 250956Z 18006KT 19/17 A2993 RMK A01 T01860171  RH  091%=      5-min Rain = 0
KBY1 250957Z 14004KT 19/17 A2993 RMK A01 T01860172  RH  091%=      5-min Rain = 0
KBY1 250958Z 12003KT 19/17 A2993 RMK A01 T01870171  RH  091%=      5-min Rain = 0
KBY1 250959Z 12004KT 19/17 A2993 RMK A01 T01870170  RH  090%=      5-min Rain = 0
KBY1 251000Z 11003KT 19/17 A2993 RMK A01 T01860171  RH  091%=      5-min Rain = 0
KBY1 251001Z 14004KT 19/17 A2994 RMK A01 T01860170  RH  090%=      5-min Rain = 0
KBY1 251002Z 14004KT 19/17 A2993 RMK A01 T01850171  RH  092%=      5-min Rain = 0
KBY1 251003Z 17005KT 19/17 A2993 RMK A01 T01860172  RH  092%=      5-min Rain = 0
KBY1 251004Z 17006KT 19/17 A2994 RMK A01 T01870172  RH  091%=      5-min Rain = 0
KBY1 251005Z 14004KT 19/17 A2994 RMK A01 T01880172  RH  091%=      5-min Rain = 0
KBY1 251006Z 15004KT 19/17 A2994 RMK A01 T01880172  RH  090%=      5-min Rain = 0
KBY1 251007Z 16004G9KT 19/17 A2994 RMK A01 T01870172  RH  091%=      5-min Rain = 0
KBY1 251008Z 17006KT 19/17 A2993 RMK A01 T01870172  RH  091%=      5-min Rain = 0
KBY1 251009Z 17007KT 19/17 A2994 RMK A01 T01870172  RH  091%=      5-min Rain = 0
KBY1 251010Z 16006KT 19/17 A2994 RMK A01 T01870172  RH  091%=      5-min Rain = 0
KBY1 251011Z 15002KT 19/17 A2994 RMK A01 T01870172  RH  091%=      5-min Rain = 0
KBY1 251012Z 14004KT 19/17 A2994 RMK A01 T01870173  RH  091%=      5-min Rain = 0
KBY1 251013Z 19006KT 19/17 A2994 RMK A01 T01870173  RH  092%=      5-min Rain = 0
KBY1 251014Z 16007KT 19/17 A2994 RMK A01 T01870173  RH  091%=      5-min Rain = 0
KBY1 251015Z 16007KT 19/17 A2994 RMK A01 T01880173  RH  091%=      5-min Rain = 0
KBY1 251016Z 17007KT 19/17 A2994 RMK A01 T01890173  RH  091%=      5-min Rain = 0
KBY1 251017Z 16005KT 19/17 A2994 RMK A01 T01890173  RH  091%=      5-min Rain = 0
KBY1 251018Z 14004KT 19/17 A2994 RMK A01 T01880173  RH  091%=      5-min Rain = 0
KBY1 251019Z 16003KT 19/17 A2994 RMK A01 T01880173  RH  091%=      5-min Rain = 0
KBY1 251020Z 17005KT 19/17 A2994 RMK A01 T01870173  RH  091%=      5-min Rain = 0
KBY1 251021Z 16006KT 19/17 A2994 RMK A01 T01870173  RH  092%=      5-min Rain = 0
KBY1 251022Z 15004KT 19/17 A2994 RMK A01 T01870173  RH  092%=      5-min Rain = 0
KBY1 251023Z 16004KT 19/17 A2994 RMK A01 T01870173  RH  091%=      5-min Rain = 0
KBY1 251024Z 14005KT 19/17 A2994 RMK A01 T01870173  RH  091%=      5-min Rain = 0
KBY1 251025Z 16005KT 19/17 A2994 RMK A01 T01870173  RH  091%=      5-min Rain = 0
KBY1 251026Z 17003KT 19/17 A2994 RMK A01 T01870173  RH  091%=      5-min Rain = 0
KBY1 251027Z 17004G9KT 19/17 A2994 RMK A01 T01870173  RH  091%=      5-min Rain = 0
KBY1 251028Z 19007KT 19/17 A2994 RMK A01 T01870173  RH  091%=      5-min Rain = 0
KBY1 251029Z 17005KT 19/17 A2994 RMK A01 T01870173  RH  091%=      5-min Rain = 0
KBY1 251030Z 17006KT 19/17 A2994 RMK A01 T01870173  RH  091%=      5-min Rain = 0
KBY1 251031Z 17005KT 19/17 A2994 RMK A01 T01870173  RH  091%=      5-min Rain = 0
KBY1 251032Z 16003KT 19/17 A2994 RMK A01 T01870173  RH  091%=      5-min Rain = 0
KBY1 251033Z 16004KT 19/17 A2994 RMK A01 T01870173  RH  092%=      5-min Rain = 0
KBY1 251034Z 16003KT 19/17 A2994 RMK A01 T01870173  RH  092%=      5-min Rain = 0
KBY1 251035Z 15006KT 19/17 A2994 RMK A01 T01870173  RH  091%=      5-min Rain = 0
KBY1 251036Z 17005KT 19/17 A2994 RMK A01 T01870173  RH  092%=      5-min Rain = 0
KBY1 251037Z 16005KT 19/17 A2995 RMK A01 T01880173  RH  091%=      5-min Rain = 0
KBY1 251038Z 14004KT 19/17 A2995 RMK A01 T01880173  RH  091%=      5-min Rain = 0
KBY1 251039Z 15004KT 19/17 A2995 RMK A01 T01880173  RH  091%=      5-min Rain = 0
KBY1 251040Z 15002KT 19/17 A2995 RMK A01 T01880173  RH  091%=      5-min Rain = 0
KBY1 251041Z 14004KT 19/17 A2995 RMK A01 T01880173  RH  091%=      5-min Rain = 0
KBY1 251042Z 15006KT 19/17 A2995 RMK A01 T01870173  RH  091%=      5-min Rain = 0
KBY1 251043Z 16006KT 19/17 A2995 RMK A01 T01870173  RH  091%=      5-min Rain = 0
KBY1 251044Z 16005KT 19/17 A2995 RMK A01 T01870173  RH  092%=      5-min Rain = 0
KBY1 251045Z 15006KT 19/17 A2995 RMK A01 T01870173  RH  092%=      5-min Rain = 0
KBY1 251046Z 15005KT 19/17 A2995 RMK A01 T01870173  RH  092%=      5-min Rain = 0
KBY1 251047Z 15004KT 19/17 A2995 RMK A01 T01870173  RH  092%=      5-min Rain = 0
KBY1 251048Z 13004KT 19/17 A2995 RMK A01 T01870173  RH  092%=      5-min Rain = 0
KBY1 251049Z 16004KT 19/17 A2995 RMK A01 T01860173  RH  092%=      5-min Rain = 0
KBY1 251050Z 16006KT 19/17 A2995 RMK A01 T01860173  RH  092%=      5-min Rain = 0
KBY1 251051Z 16004KT 19/17 A2995 RMK A01 T01860173  RH  092%=      5-min Rain = 0
KBY1 251052Z 14005KT 19/17 A2995 RMK A01 T01860173  RH  092%=      5-min Rain = 0
KBY1 251053Z 14004KT 19/17 A2995 RMK A01 T01860173  RH  092%=      5-min Rain = 0
KBY1 251054Z 15006KT 19/17 A2995 RMK A01 T01860172  RH  092%=      5-min Rain = 0
KBY1 251055Z 14007KT 19/17 A2995 RMK A01 T01860173  RH  092%=      5-min Rain = 0
KBY1 251056Z 14005KT 19/17 A2995 RMK A01 T01860174  RH  092%=      5-min Rain = 0
KBY1 251057Z 16004KT 19/17 A2995 RMK A01 T01870173  RH  092%=      5-min Rain = 0
KBY1 251058Z 15004KT 19/17 A2995 RMK A01 T01870172  RH  091%=      5-min Rain = 0
KBY1 251059Z 14004KT 19/17 A2995 RMK A01 T01860172  RH  092%=      5-min Rain = 0
KBY1 251100Z 15003KT 19/17 A2996 RMK A01 T01860173  RH  092%=      5-min Rain = 0
KBY1 251101Z 17004KT 19/17 A2995 RMK A01 T01860173  RH  092%=      5-min Rain = 0
KBY1 251102Z 16003KT 19/17 A2996 RMK A01 T01850173  RH  092%=      5-min Rain = 0
KBY1 251103Z 13004KT 19/17 A2996 RMK A01 T01850172  RH  092%=      5-min Rain = 0
KBY1 251104Z 12004KT 19/17 A2996 RMK A01 T01860173  RH  092%=      5-min Rain = 0
KBY1 251105Z 13005KT 19/17 A2996 RMK A01 T01860172  RH  092%=      5-min Rain = 0
KBY1 251106Z 14003KT 19/17 A2996 RMK A01 T01860172  RH  092%=      5-min Rain = 0
KBY1 251107Z 16002KT 19/17 A2996 RMK A01 T01860171  RH  091%=      5-min Rain = 0
KBY1 251108Z 16002G8KT 19/17 A2996 RMK A01 T01850171  RH  092%=      5-min Rain = 0
KBY1 251109Z 18007KT 19/17 A2996 RMK A01 T01850172  RH  093%=      5-min Rain = 0
KBY1 251110Z 14003KT 19/17 A2996 RMK A01 T01850172  RH  092%=      5-min Rain = 0
KBY1 251111Z 13003KT 19/17 A2996 RMK A01 T01850173  RH  092%=      5-min Rain = 0
KBY1 251112Z 13005KT 19/17 A2996 RMK A01 T01850173  RH  092%=      5-min Rain = 0
KBY1 251113Z 15005KT 19/17 A2996 RMK A01 T01850173  RH  092%=      5-min Rain = 0
KBY1 251114Z 15004KT 19/17 A2996 RMK A01 T01850172  RH  092%=      5-min Rain = 0
KBY1 251115Z 16004KT 19/17 A2996 RMK A01 T01860173  RH  092%=      5-min Rain = 0
KBY1 251116Z 16003KT 19/17 A2996 RMK A01 T01860172  RH  092%=      5-min Rain = 0
KBY1 251117Z 14005KT 19/17 A2996 RMK A01 T01850172  RH  092%=      5-min Rain = 0
KBY1 251118Z 15006KT 19/17 A2996 RMK A01 T01850172  RH  092%=      5-min Rain = 0
KBY1 251119Z 14004KT 19/17 A2996 RMK A01 T01850172  RH  092%=      5-min Rain = 0
KBY1 251120Z 15004KT 19/17 A2996 RMK A01 T01850172  RH  092%=      5-min Rain = 0
KBY1 251121Z 16005KT 18/17 A2996 RMK A01 T01840172  RH  092%=      5-min Rain = 0
KBY1 251122Z 17006KT 18/17 A2996 RMK A01 T01840172  RH  093%=      5-min Rain = 0
KBY1 251123Z 18005KT 18/17 A2996 RMK A01 T01840172  RH  093%=      5-min Rain = 0
KBY1 251124Z 16003KT 18/17 A2996 RMK A01 T01840172  RH  092%=      5-min Rain = 0
KBY1 251125Z 16003KT 18/17 A2996 RMK A01 T01830171  RH  093%=      5-min Rain = 0
KBY1 251126Z 16004KT 18/17 A2996 RMK A01 T01830172  RH  093%=      5-min Rain = 0
KBY1 251127Z 18003KT 18/17 A2996 RMK A01 T01830173  RH  094%=      5-min Rain = 0
KBY1 251128Z 16004KT 18/17 A2996 RMK A01 T01830172  RH  094%=      5-min Rain = 0
KBY1 251129Z 16006KT 18/17 A2996 RMK A01 T01830173  RH  094%=      5-min Rain = 0
KBY1 251130Z 16005KT 18/17 A2996 RMK A01 T01840173  RH  093%=      5-min Rain = 0
KBY1 251131Z 16005KT 18/17 A2996 RMK A01 T01840172  RH  093%=      5-min Rain = 0
KBY1 251132Z 15004KT 18/17 A2996 RMK A01 T01840172  RH  093%=      5-min Rain = 0
KBY1 251133Z 14004KT 18/17 A2996 RMK A01 T01840172  RH  093%=      5-min Rain = 0
KBY1 251134Z 14005KT 18/17 A2996 RMK A01 T01830172  RH  093%=      5-min Rain = 0
KBY1 251135Z 14006KT 18/17 A2996 RMK A01 T01830173  RH  093%=      5-min Rain = 0
KBY1 251136Z 14005KT 18/17 A2997 RMK A01 T01830172  RH  093%=      5-min Rain = 0
KBY1 251137Z 13005KT 18/17 A2997 RMK A01 T01830173  RH  094%=      5-min Rain = 0
KBY1 251138Z 12006KT 18/17 A2997 RMK A01 T01830173  RH  094%=      5-min Rain = 0
KBY1 251139Z 14005KT 18/17 A2997 RMK A01 T01830173  RH  094%=      5-min Rain = 0
KBY1 251140Z 13004KT 18/17 A2997 RMK A01 T01830173  RH  094%=      5-min Rain = 0
KBY1 251141Z 10004KT 18/17 A2997 RMK A01 T01830173  RH  094%=      5-min Rain = 0
KBY1 251142Z 12005KT 18/17 A2997 RMK A01 T01840172  RH  093%=      5-min Rain = 0
KBY1 251143Z 10005KT 18/17 A2997 RMK A01 T01830172  RH  093%=      5-min Rain = 0
KBY1 251144Z 09004KT 18/17 A2997 RMK A01 T01830172  RH  094%=      5-min Rain = 0
KBY1 251145Z 10004KT 18/17 A2997 RMK A01 T01820172  RH  094%=      5-min Rain = 0
KBY1 251146Z 08005KT 18/17 A2997 RMK A01 T01820173  RH  094%=      5-min Rain = 0
KBY1 251147Z 10005KT 18/17 A2997 RMK A01 T01820173  RH  094%=      5-min Rain = 0
KBY1 251148Z 12005KT 18/17 A2997 RMK A01 T01820173  RH  095%=      5-min Rain = 0
KBY1 251149Z 13005KT 18/17 A2997 RMK A01 T01830173  RH  094%=      5-min Rain = 0
KBY1 251150Z 12004KT 18/17 A2997 RMK A01 T01830174  RH  094%=      5-min Rain = 0
KBY1 251151Z 10004KT 18/17 A2997 RMK A01 T01840174  RH  094%=      5-min Rain = 0
KBY1 251152Z 10005KT 18/17 A2998 RMK A01 T01840174  RH  094%=      5-min Rain = 0
KBY1 251153Z 10004KT 18/17 A2998 RMK A01 T01840174  RH  094%=      5-min Rain = 0
KBY1 251154Z 11005KT 18/17 A2998 RMK A01 T01830174  RH  094%=      5-min Rain = 0
KBY1 251155Z 09006KT 18/17 A2998 RMK A01 T01830174  RH  094%=      5-min Rain = 0
KBY1 251156Z 12006KT 18/17 A2998 RMK A01 T01830174  RH  094%=      5-min Rain = 0
KBY1 251157Z 12004KT 18/17 A2998 RMK A01 T01840174  RH  094%=      5-min Rain = 0
KBY1 251158Z 10004KT 18/17 A2998 RMK A01 T01840174  RH  094%=      5-min Rain = 0
KBY1 251159Z 10005KT 18/18 A2998 RMK A01 T01840175  RH  094%=      5-min Rain = 0
KBY1 251200Z 10004KT 18/17 A2998 RMK A01 T01840174  RH  094%=      5-min Rain = 0
KBY1 251201Z 10003KT 18/17 A2998 RMK A01 T01840174  RH  094%=      5-min Rain = 0
KBY1 251202Z 10003KT 18/17 A2998 RMK A01 T01840174  RH  094%=      5-min Rain = 0
KBY1 251203Z 09004KT 18/17 A2998 RMK A01 T01840174  RH  094%=      5-min Rain = 0
KBY1 251204Z 11003KT 18/17 A2998 RMK A01 T01840174  RH  094%=      5-min Rain = 0
KBY1 251205Z 11002KT 18/18 A2998 RMK A01 T01840175  RH  094%=      5-min Rain = 0
KBY1 251206Z 09003KT 18/17 A2998 RMK A01 T01840174  RH  094%=      5-min Rain = 0
KBY1 251207Z 11005KT 18/17 A2998 RMK A01 T01840174  RH  094%=      5-min Rain = 0
KBY1 251208Z 11004KT 19/17 A2998 RMK A01 T01850174  RH  094%=      5-min Rain = 0
KBY1 251209Z 09006KT 19/17 A2998 RMK A01 T01850174  RH  093%=      5-min Rain = 0
KBY1 251210Z 12006KT 19/17 A2998 RMK A01 T01850174  RH  093%=      5-min Rain = 0
KBY1 251211Z 15006KT 19/17 A2998 RMK A01 T01860174  RH  093%=      5-min Rain = 0
KBY1 251212Z 15005KT 19/17 A2998 RMK A01 T01870174  RH  092%=      5-min Rain = 0
KBY1 251213Z 12005KT 19/17 A2998 RMK A01 T01870174  RH  092%=      5-min Rain = 0
KBY1 251214Z 12004KT 19/17 A2998 RMK A01 T01870174  RH  092%=      5-min Rain = 0
KBY1 251215Z 15005KT 19/17 A2998 RMK A01 T01870174  RH  092%=      5-min Rain = 0
KBY1 251216Z 12004KT 19/17 A2998 RMK A01 T01860174  RH  092%=      5-min Rain = 0
KBY1 251217Z 13005KT 19/17 A2998 RMK A01 T01850173  RH  093%=      5-min Rain = 0
KBY1 251218Z 13005KT 19/17 A2998 RMK A01 T01850174  RH  093%=      5-min Rain = 0
KBY1 251219Z 11003KT 19/17 A2998 RMK A01 T01850173  RH  093%=      5-min Rain = 0
KBY1 251220Z 10005KT 19/17 A2998 RMK A01 T01850173  RH  093%=      5-min Rain = 0
KBY1 251221Z 10005KT 19/17 A2998 RMK A01 T01850174  RH  093%=      5-min Rain = 0
KBY1 251222Z 10004KT 18/17 A2998 RMK A01 T01840174  RH  093%=      5-min Rain = 0
KBY1 251223Z 10004KT 18/17 A2998 RMK A01 T01840174  RH  094%=      5-min Rain = 0
KBY1 251224Z 10003KT 18/17 A2998 RMK A01 T01830174  RH  094%=      5-min Rain = 0
KBY1 251225Z 10004KT 18/17 A2998 RMK A01 T01830174  RH  095%=      5-min Rain = 0
KBY1 251226Z 12005KT 18/18 A2998 RMK A01 T01830175  RH  095%=      5-min Rain = 0
KBY1 251227Z 10005KT 18/18 A2998 RMK A01 T01830175  RH  095%=      5-min Rain = 0
KBY1 251228Z 10004KT 18/18 A2998 RMK A01 T01830175  RH  095%=      5-min Rain = 0
KBY1 251229Z 10004KT 18/18 A2999 RMK A01 T01830175  RH  095%=      5-min Rain = 0
KBY1 251230Z 09004KT 18/18 A2999 RMK A01 T01830175  RH  095%=      5-min Rain = 0
KBY1 251231Z 11005KT 18/18 A2999 RMK A01 T01840176  RH  095%=      5-min Rain = 0
KBY1 251232Z 10004KT 18/18 A2999 RMK A01 T01840176  RH  095%=      5-min Rain = 0
KBY1 251233Z 10004KT 19/18 A2999 RMK A01 T01850176  RH  095%=      5-min Rain = 0
KBY1 251234Z 11004KT 19/18 A2999 RMK A01 T01850176  RH  095%=      5-min Rain = 0
KBY1 251235Z 12004KT 19/18 A2999 RMK A01 T01850176  RH  095%=      5-min Rain = 0
KBY1 251236Z 12004KT 19/18 A2999 RMK A01 T01850176  RH  094%=      5-min Rain = 0
KBY1 251237Z 11004KT 19/18 A2999 RMK A01 T01850176  RH  094%=      5-min Rain = 0
KBY1 251238Z 11003KT 19/18 A2999 RMK A01 T01860177  RH  095%=      5-min Rain = 0
KBY1 251239Z 11004KT 19/18 A2999 RMK A01 T01860177  RH  094%=      5-min Rain = 0
KBY1 251240Z 11003KT 19/18 A2999 RMK A01 T01860177  RH  094%=      5-min Rain = 0
KBY1 251241Z 11004KT 19/18 A2999 RMK A01 T01870178  RH  094%=      5-min Rain = 0
KBY1 251242Z 11003KT 19/18 A2999 RMK A01 T01870178  RH  094%=      5-min Rain = 0
KBY1 251243Z 11004KT 19/18 A2999 RMK A01 T01880179  RH  095%=      5-min Rain = 0
KBY1 251244Z 12004KT 19/18 A2999 RMK A01 T01880178  RH  094%=      5-min Rain = 0
KBY1 251245Z 12004KT 19/18 A2999 RMK A01 T01880178  RH  094%=      5-min Rain = 0
KBY1 251246Z 12003KT 19/18 A2999 RMK A01 T01880177  RH  093%=      5-min Rain = 0
KBY1 251247Z 13004KT 19/18 A2999 RMK A01 T01880178  RH  093%=      5-min Rain = 0
KBY1 251248Z 13003KT 19/18 A2999 RMK A01 T01890178  RH  093%=      5-min Rain = 0
KBY1 251249Z 14003KT 19/18 A2999 RMK A01 T01890178  RH  093%=      5-min Rain = 0
KBY1 251250Z 14004KT 19/18 A2999 RMK A01 T01890178  RH  093%=      5-min Rain = 0
KBY1 251251Z 12004KT 19/18 A2999 RMK A01 T01890177  RH  092%=      5-min Rain = 0
KBY1 251252Z 14004KT 19/18 A2999 RMK A01 T01890177  RH  092%=      5-min Rain = 0
KBY1 251253Z 14003KT 19/18 A2999 RMK A01 T01900177  RH  092%=      5-min Rain = 0
KBY1 251254Z 14003KT 19/18 A2999 RMK A01 T01900178  RH  093%=      5-min Rain = 0
KBY1 251255Z 14003KT 19/18 A2999 RMK A01 T01900179  RH  093%=      5-min Rain = 0
KBY1 251256Z 14003KT 19/18 A2999 RMK A01 T01910178  RH  093%=      5-min Rain = 0
KBY1 251257Z 13003KT 19/18 A2999 RMK A01 T01910178  RH  092%=      5-min Rain = 0
KBY1 251258Z 14003KT 19/18 A2999 RMK A01 T01910178  RH  092%=      5-min Rain = 0
KBY1 251259Z 14002KT 19/18 A2999 RMK A01 T01910179  RH  092%=      5-min Rain = 0
KBY1 251300Z 13003KT 19/18 A2999 RMK A01 T01920180  RH  093%=      5-min Rain = 0
KBY1 251301Z 16003KT 19/18 A2999 RMK A01 T01920180  RH  092%=      5-min Rain = 0
KBY1 251302Z 15003KT 19/18 A30 RMK A01 T01930180  RH  092%=      5-min Rain = 0
KBY1 251303Z 15003KT 19/18 A30 RMK A01 T01930180  RH  092%=      5-min Rain = 0
KBY1 251304Z 14003KT 19/18 A30 RMK A01 T01930179  RH  091%=      5-min Rain = 0
KBY1 251305Z 14003KT 19/18 A30 RMK A01 T01940180  RH  092%=      5-min Rain = 0
KBY1 251306Z 14006KT 20/18 A30 RMK A01 T01950180  RH  091%=      5-min Rain = 0
KBY1 251307Z 14005KT 20/18 A30 RMK A01 T01950180  RH  091%=      5-min Rain = 0
KBY1 251308Z 13004KT 20/18 A30 RMK A01 T01960180  RH  090%=      5-min Rain = 0
KBY1 251309Z 13004KT 20/18 A30 RMK A01 T01960180  RH  090%=      5-min Rain = 0
KBY1 251310Z 14005KT 20/18 A30 RMK A01 T01960181  RH  091%=      5-min Rain = 0
KBY1 251311Z 15006KT 20/18 A30 RMK A01 T01970181  RH  091%=      5-min Rain = 0
KBY1 251312Z 15005KT 20/18 A30 RMK A01 T01960179  RH  090%=      5-min Rain = 0
KBY1 251313Z 14004KT 20/18 A30 RMK A01 T01970180  RH  090%=      5-min Rain = 0
KBY1 251314Z 14004KT 20/18 A30 RMK A01 T01970180  RH  090%=      5-min Rain = 0
KBY1 251315Z 16003KT 20/18 A30 RMK A01 T01970181  RH  090%=      5-min Rain = 0
KBY1 251316Z 15003KT 20/18 A30 RMK A01 T01980182  RH  091%=      5-min Rain = 0
KBY1 251317Z 16005KT 20/18 A30 RMK A01 T01970181  RH  090%=      5-min Rain = 0
KBY1 251318Z 15005KT 20/18 A30 RMK A01 T01980181  RH  090%=      5-min Rain = 0
KBY1 251319Z 14005KT 20/18 A30 RMK A01 T01980181  RH  090%=      5-min Rain = 0
KBY1 251320Z 15005KT 20/18 A30 RMK A01 T01980181  RH  090%=      5-min Rain = 0
KBY1 251321Z 14003KT 20/18 A30 RMK A01 T01980181  RH  090%=      5-min Rain = 0
KBY1 251322Z 14004KT 20/18 A30 RMK A01 T01980181  RH  090%=      5-min Rain = 0
KBY1 251323Z 15003KT 20/18 A30 RMK A01 T01980181  RH  090%=      5-min Rain = 0
KBY1 251324Z 17003KT 20/18 A30 RMK A01 T01990183  RH  090%=      5-min Rain = 0
KBY1 251325Z 16003KT 20/18 A30 RMK A01 T01990182  RH  090%=      5-min Rain = 0
KBY1 251326Z 17003KT 20/18 A30 RMK A01 T01990181  RH  090%=      5-min Rain = 0
KBY1 251327Z 15003KT 20/18 A30 RMK A01 T01990181  RH  090%=      5-min Rain = 0
KBY1 251328Z 15006KT 20/18 A30 RMK A01 T01990181  RH  089%=      5-min Rain = 0
KBY1 251329Z 17005KT 20/18 A30 RMK A01 T01990182  RH  090%=      5-min Rain = 0
KBY1 251330Z 17004KT 20/18 A30 RMK A01 T02000182  RH  089%=      5-min Rain = 0
KBY1 251331Z 16005KT 20/18 A30 RMK A01 T02000181  RH  089%=      5-min Rain = 0
KBY1 251332Z 18005KT 20/18 A30 RMK A01 T02000182  RH  089%=      5-min Rain = 0
KBY1 251333Z 18005KT 20/18 A30 RMK A01 T02000182  RH  089%=      5-min Rain = 0
KBY1 251334Z 16004KT 20/18 A30 RMK A01 T02000182  RH  089%=      5-min Rain = 0
KBY1 251335Z 17006KT 20/18 A30 RMK A01 T02000182  RH  089%=      5-min Rain = 0
KBY1 251336Z 16005KT 20/18 A30 RMK A01 T02000182  RH  089%=      5-min Rain = 0
KBY1 251337Z 17004KT 20/18 A30 RMK A01 T02010182  RH  089%=      5-min Rain = 0
KBY1 251338Z 17004KT 20/18 A30 RMK A01 T02010183  RH  089%=      5-min Rain = 0
KBY1 251339Z 17004KT 20/18 A30 RMK A01 T02010183  RH  089%=      5-min Rain = 0
KBY1 251340Z 17004KT 20/18 A30 RMK A01 T02010183  RH  090%=      5-min Rain = 0
KBY1 251341Z 17004KT 20/18 A30 RMK A01 T02010183  RH  090%=      5-min Rain = 0
KBY1 251342Z 17004KT 20/18 A30 RMK A01 T02010183  RH  089%=      5-min Rain = 0
KBY1 251343Z 17004KT 20/18 A30 RMK A01 T02010183  RH  089%=      5-min Rain = 0
KBY1 251344Z 17004KT 20/18 A30 RMK A01 T02010183  RH  090%=      5-min Rain = 0
KBY1 251345Z 16004KT 20/18 A30 RMK A01 T02000183  RH  090%=      5-min Rain = 0
KBY1 251346Z 16004KT 20/18 A30 RMK A01 T02010184  RH  090%=      5-min Rain = 0
KBY1 251347Z 18005KT 20/18 A30 RMK A01 T02010183  RH  089%=      5-min Rain = 0
KBY1 251348Z 17003KT 20/19 A30 RMK A01 T02010185  RH  090%=      5-min Rain = 0
KBY1 251349Z 16005KT 20/19 A30 RMK A01 T02010185  RH  090%=      5-min Rain = 0
KBY1 251350Z 17005KT 20/19 A30 RMK A01 T02020185  RH  090%=      5-min Rain = 0
KBY1 251351Z 19004KT 20/18 A30 RMK A01 T02020184  RH  089%=      5-min Rain = 0
KBY1 251352Z 19003KT 20/19 A30 RMK A01 T02020185  RH  090%=      5-min Rain = 0
KBY1 251353Z 19004KT 20/19 A30 RMK A01 T02020185  RH  090%=      5-min Rain = 0
KBY1 251354Z 19004KT 20/18 A30 RMK A01 T02020184  RH  089%=      5-min Rain = 0
KBY1 251355Z 18003KT 20/19 A30 RMK A01 T02030185  RH  090%=      5-min Rain = 0
KBY1 251356Z 19003KT 20/19 A30 RMK A01 T02030187  RH  090%=      5-min Rain = 0
KBY1 251357Z 19005KT 20/19 A30 RMK A01 T02030186  RH  090%=      5-min Rain = 0
KBY1 251358Z 19006KT 20/18 A30 RMK A01 T02040184  RH  089%=      5-min Rain = 0
KBY1 251359Z 20006KT 20/18 A30 RMK A01 T02040184  RH  089%=      5-min Rain = 0
KBY1 251400Z 21005KT 20/19 A30 RMK A01 T02040185  RH  089%=      5-min Rain = 0
KBY1 251401Z 19005KT 20/19 A30 RMK A01 T02040185  RH  089%=      5-min Rain = 0
KBY1 251402Z 20005KT 21/19 A30 RMK A01 T02050186  RH  089%=      5-min Rain = 0
KBY1 251403Z 20004KT 21/19 A30 RMK A01 T02050186  RH  089%=      5-min Rain = 0
KBY1 251404Z 18004KT 21/19 A30 RMK A01 T02050187  RH  089%=      5-min Rain = 0
KBY1 251405Z 20006KT 21/19 A30 RMK A01 T02060185  RH  088%=      5-min Rain = 0
KBY1 251406Z 20006KT 21/19 A30 RMK A01 T02060185  RH  088%=      5-min Rain = 0
KBY1 251407Z 19005KT 21/18 A30 RMK A01 T02060184  RH  087%=      5-min Rain = 0
KBY1 251408Z 19005KT 21/18 A30 RMK A01 T02060184  RH  087%=      5-min Rain = 0
KBY1 251409Z 19005KT 21/18 A30 RMK A01 T02060184  RH  087%=      5-min Rain = 0
KBY1 251410Z 19004KT 21/19 A30 RMK A01 T02070185  RH  087%=      5-min Rain = 0
KBY1 251411Z 20003KT 21/19 A30 RMK A01 T02070185  RH  087%=      5-min Rain = 0
KBY1 251412Z 20003KT 21/19 A3001 RMK A01 T02070187  RH  088%=      5-min Rain = 0
KBY1 251413Z 20003KT 21/19 A3001 RMK A01 T02070187  RH  088%=      5-min Rain = 0
KBY1 251414Z 19003KT 21/19 A3001 RMK A01 T02080187  RH  088%=      5-min Rain = 0
KBY1 251415Z 19003KT 21/19 A3001 RMK A01 T02080187  RH  088%=      5-min Rain = 0
KBY1 251416Z 21003KT 21/19 A3001 RMK A01 T02080186  RH  087%=      5-min Rain = 0
KBY1 251417Z 19004KT 21/19 A3001 RMK A01 T02090185  RH  087%=      5-min Rain = 0
KBY1 251418Z 19004KT 21/18 A3001 RMK A01 T02080184  RH  086%=      5-min Rain = 0
KBY1 251419Z 18003KT 21/18 A3001 RMK A01 T02080184  RH  086%=      5-min Rain = 0
KBY1 251420Z 19003KT 21/19 A3001 RMK A01 T02090185  RH  086%=      5-min Rain = 0
KBY1 251421Z 19003KT 21/19 A3001 RMK A01 T02090188  RH  088%=      5-min Rain = 0
KBY1 251422Z 19003KT 21/19 A3001 RMK A01 T02100188  RH  088%=      5-min Rain = 0
KBY1 251423Z 19003KT 21/19 A3001 RMK A01 T02100188  RH  087%=      5-min Rain = 0
KBY1 251424Z 18005KT 21/19 A3001 RMK A01 T02100186  RH  086%=      5-min Rain = 0
KBY1 251425Z 18004KT 21/19 A3001 RMK A01 T02100185  RH  086%=      5-min Rain = 0
KBY1 251426Z 19004KT 21/19 A3001 RMK A01 T02100185  RH  086%=      5-min Rain = 0
KBY1 251427Z 19004KT 21/19 A3001 RMK A01 T02100186  RH  086%=      5-min Rain = 0
KBY1 251428Z 19004KT 21/19 A3001 RMK A01 T02110187  RH  086%=      5-min Rain = 0
KBY1 251429Z 18003KT 21/19 A3001 RMK A01 T02110186  RH  086%=      5-min Rain = 0
KBY1 251430Z 18003KT 21/19 A3001 RMK A01 T02110188  RH  087%=      5-min Rain = 0
KBY1 251431Z 16003KT 21/19 A3001 RMK A01 T02110187  RH  086%=      5-min Rain = 0
KBY1 251432Z 17004KT 21/19 A3001 RMK A01 T02120187  RH  085%=      5-min Rain = 0
KBY1 251433Z 18002KT 21/19 A3001 RMK A01 T02120186  RH  085%=      5-min Rain = 0
KBY1 251434Z 19003KT 21/19 A3001 RMK A01 T02120188  RH  086%=      5-min Rain = 0
KBY1 251435Z 17002KT 21/19 A3001 RMK A01 T02120185  RH  085%=      5-min Rain = 0
KBY1 251436Z 19004KT 21/19 A3001 RMK A01 T02120187  RH  085%=      5-min Rain = 0
KBY1 251437Z 18003KT 21/19 A3001 RMK A01 T02120188  RH  086%=      5-min Rain = 0
KBY1 251438Z 18003KT 21/19 A3001 RMK A01 T02130189  RH  086%=      5-min Rain = 0
KBY1 251439Z 18004KT 21/19 A3001 RMK A01 T02140189  RH  086%=      5-min Rain = 0
KBY1 251440Z 19004KT 21/19 A3001 RMK A01 T02140187  RH  085%=      5-min Rain = 0
KBY1 251441Z 20003KT 21/19 A3001 RMK A01 T02140186  RH  084%=      5-min Rain = 0
KBY1 251442Z 18004KT 21/19 A3001 RMK A01 T02140189  RH  085%=      5-min Rain = 0
KBY1 251443Z 20006KT 22/19 A3001 RMK A01 T02150186  RH  084%=      5-min Rain = 0
KBY1 251444Z 20008KT 22/19 A3001 RMK A01 T02150185  RH  083%=      5-min Rain = 0
KBY1 251445Z 19007KT 22/19 A3001 RMK A01 T02160185  RH  083%=      5-min Rain = 0
KBY1 251446Z 21005KT 22/19 A3001 RMK A01 T02160186  RH  083%=      5-min Rain = 0
KBY1 251447Z 20005KT 22/19 A3001 RMK A01 T02170187  RH  083%=      5-min Rain = 0
KBY1 251448Z 21005KT 22/19 A3001 RMK A01 T02180187  RH  083%=      5-min Rain = 0
KBY1 251449Z 22005KT 22/19 A3001 RMK A01 T02190188  RH  083%=      5-min Rain = 0
KBY1 251450Z 21005KT 22/19 A3001 RMK A01 T02180187  RH  082%=      5-min Rain = 0
KBY1 251451Z 19005KT 22/19 A3001 RMK A01 T02190186  RH  082%=      5-min Rain = 0
KBY1 251452Z 18007KT 22/19 A3001 RMK A01 T02190186  RH  082%=      5-min Rain = 0
KBY1 251453Z 20007KT 22/19 A3001 RMK A01 T02200186  RH  081%=      5-min Rain = 0
KBY1 251454Z 20007KT 22/19 A3001 RMK A01 T02200186  RH  081%=      5-min Rain = 0
KBY1 251455Z 20007KT 22/18 A3001 RMK A01 T02200184  RH  080%=      5-min Rain = 0
KBY1 251456Z 20005KT 22/19 A3001 RMK A01 T02200185  RH  080%=      5-min Rain = 0
KBY1 251457Z 19006KT 22/19 A3001 RMK A01 T02210186  RH  081%=      5-min Rain = 0
KBY1 251458Z 18005KT 22/19 A3001 RMK A01 T02210186  RH  080%=      5-min Rain = 0
KBY1 251459Z 19004KT 22/19 A3001 RMK A01 T02220187  RH  081%=      5-min Rain = 0
KBY1 251500Z 19006KT 22/19 A3001 RMK A01 T02230189  RH  081%=      5-min Rain = 0
KBY1 251501Z 19007KT 22/19 A3001 RMK A01 T02240187  RH  080%=      5-min Rain = 0
KBY1 251502Z 19008KT 22/19 A3001 RMK A01 T02240187  RH  079%=      5-min Rain = 0
KBY1 251503Z 19005KT 22/19 A3001 RMK A01 T02240188  RH  080%=      5-min Rain = 0
KBY1 251504Z 20005KT 23/19 A3001 RMK A01 T02260190  RH  080%=      5-min Rain = 0
KBY1 251505Z 18005KT 23/19 A3001 RMK A01 T02260188  RH  079%=      5-min Rain = 0
KBY1 251506Z 19004KT 23/19 A3001 RMK A01 T02270188  RH  079%=      5-min Rain = 0
KBY1 251507Z 21006KT 23/19 A3001 RMK A01 T02270189  RH  079%=      5-min Rain = 0
KBY1 251508Z 20009KT 23/19 A3001 RMK A01 T02280188  RH  078%=      5-min Rain = 0
KBY1 251509Z 19010KT 23/19 A3001 RMK A01 T02300186  RH  077%=      5-min Rain = 0
KBY1 251510Z 20009KT 23/19 A3001 RMK A01 T02320189  RH  077%=      5-min Rain = 0
KBY1 251511Z 19008KT 23/19 A3001 RMK A01 T02330187  RH  075%=      5-min Rain = 0
KBY1 251512Z 19006KT 23/19 A3001 RMK A01 T02330189  RH  076%=      5-min Rain = 0
KBY1 251513Z 19008KT 23/19 A3001 RMK A01 T02330189  RH  076%=      5-min Rain = 0
KBY1 251514Z 17009KT 23/18 A3001 RMK A01 T02320184  RH  074%=      5-min Rain = 0
KBY1 251515Z 18008KT 23/18 A3001 RMK A01 T02310184  RH  075%=      5-min Rain = 0
KBY1 251516Z 19009KT 23/19 A3001 RMK A01 T02310186  RH  076%=      5-min Rain = 0
KBY1 251517Z 20009KT 23/19 A3001 RMK A01 T02310185  RH  075%=      5-min Rain = 0
KBY1 251518Z 19009KT 23/19 A3001 RMK A01 T02310185  RH  075%=      5-min Rain = 0
KBY1 251519Z 19009KT 23/19 A3001 RMK A01 T02310186  RH  076%=      5-min Rain = 0
KBY1 251520Z 21009KT 23/19 A3001 RMK A01 T02310185  RH  075%=      5-min Rain = 0
KBY1 251521Z 21008KT 23/19 A3001 RMK A01 T02310187  RH  076%=      5-min Rain = 0
KBY1 251522Z 21009KT 23/19 A3001 RMK A01 T02310187  RH  076%=      5-min Rain = 0
KBY1 251523Z 21011KT 23/18 A3001 RMK A01 T02310184  RH  075%=      5-min Rain = 0
KBY1 251524Z 21012KT 23/18 A3001 RMK A01 T02300184  RH  075%=      5-min Rain = 0
KBY1 251525Z 21010KT 23/18 A3001 RMK A01 T02300183  RH  075%=      5-min Rain = 0
KBY1 251526Z 20009KT 23/18 A3001 RMK A01 T02300184  RH  075%=      5-min Rain = 0
KBY1 251527Z 21010KT 23/18 A3001 RMK A01 T02300184  RH  075%=      5-min Rain = 0
KBY1 251528Z 20007KT 23/18 A3001 RMK A01 T02300183  RH  075%=      5-min Rain = 0
KBY1 251529Z 21011KT 23/19 A3001 RMK A01 T02310185  RH  075%=      5-min Rain = 0
KBY1 251530Z 21010KT 23/18 A3001 RMK A01 T02310181  RH  073%=      5-min Rain = 0
KBY1 251531Z 20009KT 23/18 A3001 RMK A01 T02320184  RH  074%=      5-min Rain = 0
KBY1 251532Z 21008KT 23/19 A3001 RMK A01 T02320185  RH  075%=      5-min Rain = 0
KBY1 251533Z 21007KT 23/18 A3001 RMK A01 T02330183  RH  074%=      5-min Rain = 0
KBY1 251534Z 21009KT 23/19 A3001 RMK A01 T02330186  RH  075%=      5-min Rain = 0
KBY1 251535Z 21009KT 23/19 A3001 RMK A01 T02320185  RH  075%=      5-min Rain = 0
KBY1 251536Z 21007KT 23/18 A3001 RMK A01 T02320184  RH  074%=      5-min Rain = 0
KBY1 251537Z 20006KT 23/19 A3001 RMK A01 T02320185  RH  075%=      5-min Rain = 0
KBY1 251538Z 20008KT 23/19 A3001 RMK A01 T02320188  RH  076%=      5-min Rain = 0
KBY1 251539Z 20009KT 24/19 A3001 RMK A01 T02350186  RH  074%=      5-min Rain = 0
KBY1 251540Z 19010KT 24/19 A3001 RMK A01 T02370188  RH  074%=      5-min Rain = 0
KBY1 251541Z 19008KT 24/19 A3001 RMK A01 T02390188  RH  073%=      5-min Rain = 0
KBY1 251542Z 19010KT 24/19 A3001 RMK A01 T02400185  RH  071%=      5-min Rain = 0
KBY1 251543Z 18010KT 24/19 A3001 RMK A01 T02390185  RH  072%=      5-min Rain = 0
KBY1 251544Z 20008KT 24/19 A3001 RMK A01 T02380186  RH  072%=      5-min Rain = 0
KBY1 251545Z 21007KT 24/19 A30 RMK A01 T02370189  RH  074%=      5-min Rain = 0
KBY1 251546Z 21008KT 24/19 A30 RMK A01 T02370185  RH  072%=      5-min Rain = 0
KBY1 251547Z 20008KT 24/19 A30 RMK A01 T02390191  RH  074%=      5-min Rain = 0
KBY1 251548Z 20009KT 24/19 A30 RMK A01 T02430187  RH  071%=      5-min Rain = 0
KBY1 251549Z 19012KT 25/19 A30 RMK A01 T02460190  RH  071%=      5-min Rain = 0
KBY1 251550Z 20011KT 25/19 A30 RMK A01 T02480188  RH  069%=      5-min Rain = 0
KBY1 251551Z 21011KT 25/19 A30 RMK A01 T02480187  RH  069%=      5-min Rain = 0
KBY1 251552Z 20008KT 25/19 A30 RMK A01 T02470186  RH  069%=      5-min Rain = 0
KBY1 251553Z 20010KT 25/19 A30 RMK A01 T02460187  RH  070%=      5-min Rain = 0
KBY1 251554Z 20008KT 25/19 A30 RMK A01 T02460189  RH  070%=      5-min Rain = 0
KBY1 251555Z 19007KT 25/19 A30 RMK A01 T02480190  RH  070%=      5-min Rain = 0
KBY1 251556Z 18010KT 25/19 A30 RMK A01 T02480190  RH  070%=      5-min Rain = 0
KBY1 251557Z 18012KT 25/19 A30 RMK A01 T02490186  RH  068%=      5-min Rain = 0
KBY1 251558Z 18013KT 25/18 A30 RMK A01 T02500184  RH  067%=      5-min Rain = 0
KBY1 251559Z 19009KT 25/19 A30 RMK A01 T02500187  RH  068%=      5-min Rain = 0
KBY1 251600Z 18009KT 25/19 A30 RMK A01 T02500188  RH  068%=      5-min Rain = 0
KBY1 251601Z 18010KT 25/19 A30 RMK A01 T02510185  RH  067%=      5-min Rain = 0
KBY1 251602Z 20011KT 25/19 A30 RMK A01 T02510186  RH  067%=      5-min Rain = 0
KBY1 251603Z 19012G17KT 25/19 A30 RMK A01 T02520187  RH  067%=      5-min Rain = 0
KBY1 251604Z 20013KT 25/18 A30 RMK A01 T02540184  RH  066%=      5-min Rain = 0
KBY1 251605Z 19015KT 25/18 A30 RMK A01 T02540184  RH  065%=      5-min Rain = 0
KBY1 251606Z 19012KT 25/18 A30 RMK A01 T02520182  RH  065%=      5-min Rain = 0
KBY1 251607Z 19013KT 25/18 A30 RMK A01 T02520184  RH  066%=      5-min Rain = 0
KBY1 251608Z 20012KT 25/18 A30 RMK A01 T02530183  RH  065%=      5-min Rain = 0
KBY1 251609Z 20009G14KT 25/19 A30 RMK A01 T02520186  RH  067%=      5-min Rain = 0
KBY1 251610Z 21012KT 25/19 A30 RMK A01 T02510185  RH  067%=      5-min Rain = 0
KBY1 251611Z 20010KT 25/19 A30 RMK A01 T02500185  RH  067%=      5-min Rain = 0
KBY1 251612Z 21011KT 25/18 A30 RMK A01 T02500184  RH  067%=      5-min Rain = 0
KBY1 251613Z 22011KT 25/19 A30 RMK A01 T02510185  RH  067%=      5-min Rain = 0
KBY1 251614Z 22012KT 25/18 A30 RMK A01 T02530182  RH  065%=      5-min Rain = 0
KBY1 251615Z 20008KT 25/18 A30 RMK A01 T02530184  RH  066%=      5-min Rain = 0
KBY1 251616Z 19008KT 25/19 A30 RMK A01 T02530187  RH  067%=      5-min Rain = 0
KBY1 251617Z 19009G14KT 26/19 A30 RMK A01 T02560187  RH  066%=      5-min Rain = 0
KBY1 251618Z 20012KT 26/18 A30 RMK A01 T02550183  RH  065%=      5-min Rain = 0
KBY1 251619Z 20011KT 25/18 A30 RMK A01 T02530184  RH  066%=      5-min Rain = 0
KBY1 251620Z 20008KT 25/18 A30 RMK A01 T02510181  RH  065%=      5-min Rain = 0
KBY1 251621Z 18008KT 25/18 A30 RMK A01 T02490183  RH  066%=      5-min Rain = 0
KBY1 251622Z 19008KT 25/19 A30 RMK A01 T02480185  RH  068%=      5-min Rain = 0
KBY1 251623Z 19013KT 25/18 A30 RMK A01 T02480183  RH  067%=      5-min Rain = 0
KBY1 251624Z 18012KT 25/18 A30 RMK A01 T02490182  RH  066%=      5-min Rain = 0
KBY1 251625Z 18012KT 25/18 A30 RMK A01 T02520181  RH  065%=      5-min Rain = 0
KBY1 251626Z 18010KT 25/19 A30 RMK A01 T02540185  RH  066%=      5-min Rain = 0
KBY1 251627Z 18010KT 26/18 A30 RMK A01 T02570184  RH  064%=      5-min Rain = 0
KBY1 251628Z 19010KT 26/18 A30 RMK A01 T02570182  RH  063%=      5-min Rain = 0
KBY1 251629Z 19010KT 26/18 A30 RMK A01 T02550182  RH  064%=      5-min Rain = 0
KBY1 251630Z 18006KT 25/18 A30 RMK A01 T02520184  RH  066%=      5-min Rain = 0
KBY1 251631Z 18007KT 25/19 A30 RMK A01 T02530185  RH  066%=      5-min Rain = 0
KBY1 251632Z 19009KT 26/19 A30 RMK A01 T02550186  RH  066%=      5-min Rain = 0
KBY1 251633Z 21010KT 26/18 A30 RMK A01 T02570183  RH  064%=      5-min Rain = 0
KBY1 251634Z 20011KT 26/19 A30 RMK A01 T02590185  RH  064%=      5-min Rain = 0
KBY1 251635Z 20008KT 26/18 A30 RMK A01 T02590184  RH  063%=      5-min Rain = 0
KBY1 251636Z 18009KT 26/19 A30 RMK A01 T02590185  RH  063%=      5-min Rain = 0
KBY1 251637Z 18007KT 26/18 A30 RMK A01 T02580179  RH  062%=      5-min Rain = 0
KBY1 251638Z 20006KT 26/18 A30 RMK A01 T02560184  RH  064%=      5-min Rain = 0
KBY1 251639Z 20006KT 26/18 A30 RMK A01 T02550184  RH  065%=      5-min Rain = 0
KBY1 251640Z 20004KT 26/18 A30 RMK A01 T02560181  RH  063%=      5-min Rain = 0
KBY1 251641Z 21006KT 26/19 A30 RMK A01 T02560187  RH  066%=      5-min Rain = 0
KBY1 251642Z 19006KT 26/19 A30 RMK A01 T02580188  RH  065%=      5-min Rain = 0
KBY1 251643Z 21004KT 26/19 A30 RMK A01 T02590187  RH  065%=      5-min Rain = 0
KBY1 251644Z 22006KT 26/19 A2999 RMK A01 T02620191  RH  065%=      5-min Rain = 0
KBY1 251645Z 22006KT 26/19 A2999 RMK A01 T02630187  RH  063%=      5-min Rain = 0
KBY1 251646Z 22004KT 26/19 A2999 RMK A01 T02600186  RH  064%=      5-min Rain = 0
KBY1 251647Z 22004KT 26/19 A2999 RMK A01 T02590188  RH  065%=      5-min Rain = 0
KBY1 251648Z 23004KT 26/18 A2999 RMK A01 T02580184  RH  064%=      5-min Rain = 0
KBY1 251649Z 18004KT 26/19 A2999 RMK A01 T02590188  RH  065%=      5-min Rain = 0
KBY1 251650Z 18007KT 26/19 A2999 RMK A01 T02620191  RH  065%=      5-min Rain = 0
KBY1 251651Z 17006KT 26/19 A30 RMK A01 T02630186  RH  062%=      5-min Rain = 0
KBY1 251652Z 16007KT 26/18 A2999 RMK A01 T02620181  RH  061%=      5-min Rain = 0
KBY1 251653Z 17007KT 26/18 A2999 RMK A01 T02600182  RH  062%=      5-min Rain = 0
KBY1 251654Z 17008KT 26/18 A2999 RMK A01 T02600181  RH  062%=      5-min Rain = 0
KBY1 251655Z 21007KT 26/19 A2999 RMK A01 T02620188  RH  064%=      5-min Rain = 0
KBY1 251656Z 20007KT 26/18 A2999 RMK A01 T02640184  RH  062%=      5-min Rain = 0
KBY1 251657Z 20008KT 26/18 A2999 RMK A01 T02620182  RH  061%=      5-min Rain = 0
KBY1 251658Z 19009KT 26/18 A2999 RMK A01 T02610183  RH  062%=      5-min Rain = 0
KBY1 251659Z 18009KT 26/18 A2999 RMK A01 T02590180  RH  061%=      5-min Rain = 0
KBY1 251700Z 17006KT 26/18 A2999 RMK A01 T02590182  RH  062%=      5-min Rain = 0
KBY1 251701Z 16008KT 26/19 A2999 RMK A01 T02610185  RH  063%=      5-min Rain = 0
KBY1 251702Z 17008KT 26/18 A2999 RMK A01 T02630181  RH  060%=      5-min Rain = 0
KBY1 251703Z 16008KT 26/18 A2999 RMK A01 T02640183  RH  061%=      5-min Rain = 0
KBY1 251704Z 19008KT 27/19 A2999 RMK A01 T02650187  RH  062%=      5-min Rain = 0
KBY1 251705Z 18006KT 27/19 A2999 RMK A01 T02670187  RH  062%=      5-min Rain = 0
KBY1 251706Z 18011KT 27/18 A2999 RMK A01 T02690184  RH  060%=      5-min Rain = 0
KBY1 251707Z 20007KT 27/19 A2999 RMK A01 T02690185  RH  060%=      5-min Rain = 0
KBY1 251708Z 22009KT 27/19 A2999 RMK A01 T02690186  RH  061%=      5-min Rain = 0
KBY1 251709Z 20006KT 27/19 A2999 RMK A01 T02700190  RH  062%=      5-min Rain = 0
KBY1 251710Z 20006KT 27/19 A2999 RMK A01 T02720189  RH  060%=      5-min Rain = 0
KBY1 251711Z 20008KT 27/19 A2999 RMK A01 T02730188  RH  060%=      5-min Rain = 0
KBY1 251712Z 22008KT 27/19 A2999 RMK A01 T02710189  RH  061%=      5-min Rain = 0
KBY1 251713Z 22007KT 27/18 A2999 RMK A01 T02670182  RH  060%=      5-min Rain = 0
KBY1 251714Z 21007KT 26/18 A2999 RMK A01 T02630184  RH  062%=      5-min Rain = 0
KBY1 251715Z 20007KT 26/18 A2999 RMK A01 T02600182  RH  062%=      5-min Rain = 0
KBY1 251716Z 20009KT 26/18 A2999 RMK A01 T02610183  RH  062%=      5-min Rain = 0
KBY1 251717Z 19007KT 26/18 A2999 RMK A01 T02610182  RH  062%=      5-min Rain = 0
KBY1 251718Z 18009KT 26/19 A2999 RMK A01 T02630187  RH  063%=      5-min Rain = 0
KBY1 251719Z 18012KT 27/19 A2999 RMK A01 T02660187  RH  062%=      5-min Rain = 0
KBY1 251720Z 18010KT 27/19 A2999 RMK A01 T02680189  RH  062%=      5-min Rain = 0
KBY1 251721Z 18009KT 27/19 A2999 RMK A01 T02680187  RH  061%=      5-min Rain = 0
KBY1 251722Z 17009G14KT 27/19 A2999 RMK A01 T02660187  RH  062%=      5-min Rain = 0
KBY1 251723Z 19012KT 26/19 A2999 RMK A01 T02640185  RH  062%=      5-min Rain = 0
KBY1 251724Z 19010KT 26/18 A2999 RMK A01 T02640183  RH  061%=      5-min Rain = 0
KBY1 251725Z 18010KT 27/19 A2999 RMK A01 T02660189  RH  062%=      5-min Rain = 0
KBY1 251726Z 18010KT 27/19 A2999 RMK A01 T02700187  RH  061%=      5-min Rain = 0
KBY1 251727Z 18010KT 27/19 A2999 RMK A01 T02730189  RH  060%=      5-min Rain = 0
KBY1 251728Z 19014KT 27/18 A2999 RMK A01 T02730184  RH  058%=      5-min Rain = 0
KBY1 251729Z 19013KT 27/18 A2999 RMK A01 T02700182  RH  058%=      5-min Rain = 0
KBY1 251730Z 18011KT 27/18 A2999 RMK A01 T02680184  RH  060%=      5-min Rain = 0
KBY1 251731Z 17011KT 27/19 A2999 RMK A01 T02690185  RH  060%=      5-min Rain = 0
KBY1 251732Z 16010KT 27/18 A2999 RMK A01 T02700184  RH  059%=      5-min Rain = 0
KBY1 251733Z 17011KT 27/19 A2999 RMK A01 T02710185  RH  059%=      5-min Rain = 0
KBY1 251734Z 17011KT 27/19 A2999 RMK A01 T02700187  RH  060%=      5-min Rain = 0
KBY1 251735Z 17012KT 27/18 A2999 RMK A01 T02690183  RH  059%=      5-min Rain = 0
KBY1 251736Z 18012KT 27/19 A2999 RMK A01 T02690185  RH  060%=      5-min Rain = 0
KBY1 251737Z 18012KT 27/18 A2999 RMK A01 T02700183  RH  059%=      5-min Rain = 0
KBY1 251738Z 18011KT 27/18 A2999 RMK A01 T02690184  RH  060%=      5-min Rain = 0
KBY1 251739Z 18009KT 27/19 A2999 RMK A01 T02690185  RH  060%=      5-min Rain = 0
KBY1 251740Z 18010KT 27/19 A2999 RMK A01 T02710186  RH  060%=      5-min Rain = 0
KBY1 251741Z 18011KT 27/18 A2999 RMK A01 T02700180  RH  058%=      5-min Rain = 0
KBY1 251742Z 18008KT 27/18 A2999 RMK A01 T02670179  RH  059%=      5-min Rain = 0
KBY1 251743Z 17007KT 27/18 A2999 RMK A01 T02660184  RH  060%=      5-min Rain = 0
KBY1 251744Z 18009KT 27/19 A2999 RMK A01 T02670185  RH  061%=      5-min Rain = 0
KBY1 251745Z 19009KT 27/18 A2999 RMK A01 T02670180  RH  059%=      5-min Rain = 0
KBY1 251746Z 17006KT 27/19 A2999 RMK A01 T02650186  RH  062%=      5-min Rain = 0
KBY1 251747Z 17009KT 27/19 A2999 RMK A01 T02660187  RH  062%=      5-min Rain = 0
KBY1 251748Z 17009KT 27/18 A2999 RMK A01 T02670182  RH  060%=      5-min Rain = 0
KBY1 251749Z 17007KT 27/18 A2999 RMK A01 T02670184  RH  060%=      5-min Rain = 0
KBY1 251750Z 16009KT 27/18 A2999 RMK A01 T02680184  RH  060%=      5-min Rain = 0
KBY1 251751Z 17009KT 27/18 A2999 RMK A01 T02680184  RH  060%=      5-min Rain = 0
KBY1 251752Z 16008KT 27/19 A2999 RMK A01 T02680186  RH  061%=      5-min Rain = 0
KBY1 251753Z 16009KT 27/19 A2999 RMK A01 T02690185  RH  060%=      5-min Rain = 0
KBY1 251754Z 17010KT 27/19 A2999 RMK A01 T02680186  RH  061%=      5-min Rain = 0
KBY1 251755Z 18008KT 27/19 A2999 RMK A01 T02670187  RH  061%=      5-min Rain = 0
KBY1 251756Z 16007KT 27/19 A2998 RMK A01 T02680189  RH  062%=      5-min Rain = 0
KBY1 251757Z 17007KT 27/19 A2998 RMK A01 T02710189  RH  061%=      5-min Rain = 0
KBY1 251758Z 17007KT 27/19 A2998 RMK A01 T02720189  RH  060%=      5-min Rain = 0
KBY1 251759Z 18011G16KT 27/19 A2998 RMK A01 T02730188  RH  060%=      5-min Rain = 0
KBY1 251800Z 20009KT 28/19 A2998 RMK A01 T02750187  RH  059%=      5-min Rain = 0
KBY1 251801Z 19011KT 28/19 A2998 RMK A01 T02750189  RH  059%=      5-min Rain = 0
KBY1 251802Z 19010KT 28/19 A2998 RMK A01 T02760190  RH  059%=      5-min Rain = 0
KBY1 251803Z 19008KT 28/18 A2998 RMK A01 T02780184  RH  056%=      5-min Rain = 0
KBY1 251804Z 17010KT 28/19 A2998 RMK A01 T02770187  RH  058%=      5-min Rain = 0
KBY1 251805Z 17011KT 28/18 A2998 RMK A01 T02770183  RH  056%=      5-min Rain = 0
KBY1 251806Z 17010KT 28/18 A2998 RMK A01 T02780182  RH  056%=      5-min Rain = 0
KBY1 251807Z 18011KT 28/18 A2998 RMK A01 T02770181  RH  056%=      5-min Rain = 0
KBY1 251808Z 19011KT 28/19 A2998 RMK A01 T02750185  RH  058%=      5-min Rain = 0
KBY1 251809Z 19011KT 28/18 A2998 RMK A01 T02750183  RH  057%=      5-min Rain = 0
KBY1 251810Z 19012KT 27/18 A2998 RMK A01 T02740180  RH  056%=      5-min Rain = 0
KBY1 251811Z 19011KT 27/19 A2998 RMK A01 T02720185  RH  059%=      5-min Rain = 0
KBY1 251812Z 20008KT 27/19 A2998 RMK A01 T02720185  RH  059%=      5-min Rain = 0
KBY1 251813Z 18009KT 27/19 A2997 RMK A01 T02740189  RH  060%=      5-min Rain = 0
KBY1 251814Z 17007KT 28/19 A2997 RMK A01 T02750186  RH  058%=      5-min Rain = 0
KBY1 251815Z 18008KT 27/18 A2997 RMK A01 T02740184  RH  058%=      5-min Rain = 0
KBY1 251816Z 17006KT 27/18 A2997 RMK A01 T02700181  RH  058%=      5-min Rain = 0
KBY1 251817Z 16007KT 27/18 A2997 RMK A01 T02670181  RH  059%=      5-min Rain = 0
KBY1 251818Z 17007KT 27/18 A2997 RMK A01 T02660180  RH  059%=      5-min Rain = 0
KBY1 251819Z 17006KT 27/19 A2996 RMK A01 T02680185  RH  061%=      5-min Rain = 0
KBY1 251820Z 19009KT 27/19 A2996 RMK A01 T02720186  RH  059%=      5-min Rain = 0
KBY1 251821Z 17009KT 27/18 A2996 RMK A01 T02740180  RH  056%=      5-min Rain = 0
KBY1 251822Z 18010KT 27/18 A2996 RMK A01 T02720183  RH  058%=      5-min Rain = 0
KBY1 251823Z 18010KT 27/18 A2996 RMK A01 T02720182  RH  058%=      5-min Rain = 0
KBY1 251824Z 17007KT 27/18 A2997 RMK A01 T02710181  RH  058%=      5-min Rain = 0
KBY1 251825Z 17006KT 27/18 A2997 RMK A01 T02700177  RH  057%=      5-min Rain = 0
KBY1 251826Z 17008KT 27/19 A2997 RMK A01 T02680185  RH  060%=      5-min Rain = 0
KBY1 251827Z 18008KT 27/18 A2997 RMK A01 T02680180  RH  059%=      5-min Rain = 0
KBY1 251828Z 17007KT 27/18 A2997 RMK A01 T02660180  RH  059%=      5-min Rain = 0
KBY1 251829Z 18005KT 27/18 A2997 RMK A01 T02650181  RH  060%=      5-min Rain = 0
KBY1 251830Z 17005KT 27/18 A2997 RMK A01 T02650184  RH  061%=      5-min Rain = 0
KBY1 251831Z 17007KT 27/18 A2997 RMK A01 T02650182  RH  060%=      5-min Rain = 0
KBY1 251832Z 20008KT 27/18 A2996 RMK A01 T02650183  RH  061%=      5-min Rain = 0
KBY1 251833Z 20010KT 26/18 A2996 RMK A01 T02640180  RH  060%=      5-min Rain = 0
KBY1 251834Z 20010KT 26/18 A2996 RMK A01 T02630180  RH  060%=      5-min Rain = 0
KBY1 251835Z 20009KT 26/18 A2996 RMK A01 T02620180  RH  061%=      5-min Rain = 0
KBY1 251836Z 19010KT 26/18 A2996 RMK A01 T02600179  RH  061%=      5-min Rain = 0
KBY1 251837Z 19007KT 26/18 A2996 RMK A01 T02600181  RH  062%=      5-min Rain = 0
KBY1 251838Z 21005KT 26/19 A2996 RMK A01 T02590185  RH  064%=      5-min Rain = 0
KBY1 251839Z 21005KT 26/18 A2996 RMK A01 T02590183  RH  063%=      5-min Rain = 0
KBY1 251840Z 21007KT 26/18 A2996 RMK A01 T02580182  RH  063%=      5-min Rain = 0
KBY1 251841Z 21007KT 26/18 A2996 RMK A01 T02580179  RH  062%=      5-min Rain = 0
KBY1 251842Z 21007KT 26/18 A2996 RMK A01 T02570180  RH  063%=      5-min Rain = 0
KBY1 251843Z 21007KT 26/18 A2996 RMK A01 T02560180  RH  063%=      5-min Rain = 0
KBY1 251844Z 20006KT 26/18 A2995 RMK A01 T02550181  RH  063%=      5-min Rain = 0
KBY1 251845Z 21007KT 26/18 A2995 RMK A01 T02550180  RH  063%=      5-min Rain = 0
KBY1 251846Z 22007KT 25/18 A2995 RMK A01 T02540178  RH  063%=      5-min Rain = 0
KBY1 251847Z 21009KT 25/18 A2995 RMK A01 T02540178  RH  063%=      5-min Rain = 0
KBY1 251848Z 21010KT 25/18 A2995 RMK A01 T02540178  RH  063%=      5-min Rain = 0
KBY1 251849Z 21008KT 25/18 A2995 RMK A01 T02540177  RH  063%=      5-min Rain = 0
KBY1 251850Z 20008KT 25/18 A2994 RMK A01 T02540177  RH  063%=      5-min Rain = 0
KBY1 251851Z 19007KT 25/18 A2994 RMK A01 T02530179  RH  063%=      5-min Rain = 0
KBY1 251852Z 18007KT 25/18 A2994 RMK A01 T02530180  RH  064%=      5-min Rain = 0
KBY1 251853Z 17006KT 25/18 A2994 RMK A01 T02530180  RH  064%=      5-min Rain = 0
KBY1 251854Z 17007KT 25/18 A2994 RMK A01 T02520181  RH  065%=      5-min Rain = 0
KBY1 251855Z 17007KT 25/18 A2994 RMK A01 T02520182  RH  065%=      5-min Rain = 0
KBY1 251856Z 18007KT 25/18 A2994 RMK A01 T02520182  RH  065%=      5-min Rain = 0
KBY1 251857Z 18008KT 25/18 A2993 RMK A01 T02510182  RH  065%=      5-min Rain = 0
KBY1 251858Z 18008KT 25/18 A2993 RMK A01 T02510181  RH  065%=      5-min Rain = 0
KBY1 251859Z 18007KT 25/18 A2993 RMK A01 T02510181  RH  065%=      5-min Rain = 0
KBY1 251900Z 19006KT 25/18 A2992 RMK A01 T02510180  RH  065%=      5-min Rain = 0
KBY1 251901Z 19006KT 25/18 A2992 RMK A01 T02510182  RH  065%=      5-min Rain = 0
KBY1 251902Z 20004KT 25/18 A2992 RMK A01 T02500180  RH  065%=      5-min Rain = 0
KBY1 251903Z 19004KT 25/18 A2992 RMK A01 T02500182  RH  066%=      5-min Rain = 0
KBY1 251904Z 20003KT 25/19 A2992 RMK A01 T02500186  RH  068%=      5-min Rain = 0
KBY1 251905Z 20003KT 25/18 A2992 RMK A01 T02490184  RH  067%=      5-min Rain = 0
KBY1 251906Z 20003KT 25/18 A2992 RMK A01 T02490183  RH  067%=      5-min Rain = 0
KBY1 251907Z 18003KT 25/18 A2992 RMK A01 T02490184  RH  067%=      5-min Rain = 0
KBY1 251908Z 17003KT 25/18 A2992 RMK A01 T02480183  RH  067%=      5-min Rain = 0
KBY1 251909Z 16004KT 25/18 A2993 RMK A01 T02490184  RH  067%=      5-min Rain = 0
KBY1 251910Z 15004KT 25/18 A2993 RMK A01 T02480184  RH  067%=      5-min Rain = 0
KBY1 251911Z 14004KT 25/19 A2993 RMK A01 T02490185  RH  068%=      5-min Rain = 0
KBY1 251912Z 13005KT 25/19 A2993 RMK A01 T02480187  RH  069%=      5-min Rain = 0
KBY1 251913Z 13005KT 25/19 A2993 RMK A01 T02480188  RH  070%=      5-min Rain = 0
KBY1 251914Z 13006KT 25/19 A2993 RMK A01 T02470187  RH  069%=      5-min Rain = 0
KBY1 251915Z 13005KT 25/18 A2993 RMK A01 T02460183  RH  068%=      5-min Rain = 0
KBY1 251916Z 12005KT 25/18 A2993 RMK A01 T02460183  RH  068%=      5-min Rain = 0
KBY1 251917Z 11004KT 25/18 A2993 RMK A01 T02470184  RH  068%=      5-min Rain = 0
KBY1 251918Z 11004KT 25/18 A2993 RMK A01 T02470183  RH  068%=      5-min Rain = 0
KBY1 251919Z 11004KT 25/18 A2992 RMK A01 T02460184  RH  068%=      5-min Rain = 0
KBY1 251920Z 10003KT 25/18 A2992 RMK A01 T02460184  RH  069%=      5-min Rain = 0
KBY1 251921Z 10003KT 25/19 A2992 RMK A01 T02450185  RH  069%=      5-min Rain = 0
KBY1 251922Z 10004KT 24/19 A2992 RMK A01 T02440186  RH  070%=      5-min Rain = 0
KBY1 251923Z 11004KT 24/19 A2992 RMK A01 T02430186  RH  070%=      5-min Rain = 0
KBY1 251924Z 11005KT 24/19 A2992 RMK A01 T02420186  RH  071%=      5-min Rain = 0
KBY1 251925Z 12008KT 24/19 A2993 RMK A01 T02420186  RH  071%=      5-min Rain = 0
KBY1 251926Z 13012G19KT 24/19 A2994 RMK A01 T02410185  RH  071%=      5-min Rain = 0
KBY1 251927Z 13020G26KT 24/18 A2994 RMK A01 T02370178  RH  069%=      5-min Rain = 0
KBY1 251928Z 13013G20KT 23/17 A2994 RMK A01 T02280173  RH  071%=      5-min Rain = 0
KBY1 251929Z 13014KT 22/17 A2994 RMK A01 T02220168  RH  072%=      5-min Rain = 0
KBY1 251930Z 12014G20KT 22/17 A2994 RMK A01 T02160166  RH  073%=      5-min Rain = 0
KBY1 251931Z 14016G21KT 21/17 A2994 RMK A01 T02130166  RH  075%=      5-min Rain = 0
KBY1 251932Z 14016KT 21/17 A2994 RMK A01 T02110166  RH  076%=      5-min Rain = 0
KBY1 251933Z 14014KT 21/17 A2995 RMK A01 T02090166  RH  076%=      5-min Rain = 0
KBY1 251934Z 14014KT 21/17 A2995 RMK A01 T02070166  RH  077%=      5-min Rain = 0
KBY1 251935Z 14016KT 21/17 A2996 RMK A01 T02060165  RH  078%=      5-min Rain = 0
KBY1 251936Z 15013G18KT 20/16 A2996 RMK A01 T02040163  RH  077%=      5-min Rain = 0
KBY1 251937Z 14012KT 20/16 A2996 RMK A01 T02020160  RH  077%=      5-min Rain = 0
KBY1 251938Z 15014KT 20/15 A2996 RMK A01 T02010153  RH  074%=      5-min Rain = 0
KBY1 251939Z 15013KT 20/15 A2995 RMK A01 T02020146  RH  070%=      5-min Rain = 0
KBY1 251940Z 15011KT 20/14 A2995 RMK A01 T02030142  RH  068%=      5-min Rain = 0
KBY1 251941Z 14011KT 20/14 A2995 RMK A01 T02040139  RH  066%=      5-min Rain = 0
KBY1 251942Z 13012KT 20/14 A2994 RMK A01 T02040139  RH  066%=      5-min Rain = 0
KBY1 251943Z 13009KT 20/14 A2993 RMK A01 T02040144  RH  068%=      5-min Rain = 0
KBY1 251944Z 14010KT 20/15 A2993 RMK A01 T02040146  RH  069%=      5-min Rain = 0
KBY1 251945Z 15009KT 20/15 A2993 RMK A01 T02030150  RH  071%=      5-min Rain = 0
KBY1 251946Z 16010KT 20/15 A2994 RMK A01 T02010154  RH  074%=      5-min Rain = 0
KBY1 251947Z 16012KT 20/16 A2994 RMK A01 T01990158  RH  077%=      5-min Rain = 0
KBY1 251948Z 15014KT 20/16 A2995 RMK A01 T01970161  RH  080%=      5-min Rain = 0
KBY1 251949Z 16012KT 20/16 A2995 RMK A01 T01950163  RH  082%=      5-min Rain = 0.01
KBY1 251950Z 15011KT 19/17 A2995 RMK A01 T01930166  RH  084%=      5-min Rain = 0
KBY1 251951Z 14010KT 19/17 A2995 RMK A01 T01920166  RH  085%=      5-min Rain = 0.01
KBY1 251952Z 13009KT 19/17 A2995 RMK A01 T01910167  RH  086%=      5-min Rain = 0.01
KBY1 251953Z 11008KT 19/17 A2996 RMK A01 T01890169  RH  088%=      5-min Rain = 0
KBY1 251954Z 11008KT 19/17 A2996 RMK A01 T01880170  RH  089%=      5-min Rain = 0.01
KBY1 251955Z 13008KT 19/17 A2997 RMK A01 T01880172  RH  090%=      5-min Rain = 0
KBY1 251956Z 15008KT 19/17 A2998 RMK A01 T01870174  RH  092%=      5-min Rain = 0
KBY1 251957Z 16009KT 19/18 A2999 RMK A01 T01870176  RH  093%=      5-min Rain = 0
KBY1 251958Z 16011KT 19/18 A2999 RMK A01 T01870178  RH  095%=      5-min Rain = 0
KBY1 251959Z 15011KT 19/18 A2999 RMK A01 T01870179  RH  095%=      5-min Rain = 0
KBY1 252000Z 15012KT 19/18 A2998 RMK A01 T01870177  RH  094%=      5-min Rain = 0
KBY1 252001Z 15009KT 19/17 A2998 RMK A01 T01870172  RH  091%=      5-min Rain = 0.01
KBY1 252002Z 14008KT 19/17 A2998 RMK A01 T01880172  RH  091%=      5-min Rain = 0
KBY1 252003Z 14008KT 19/17 A2998 RMK A01 T01880174  RH  092%=      5-min Rain = 0
KBY1 252004Z 14007KT 19/18 A2998 RMK A01 T01880175  RH  092%=      5-min Rain = 0
KBY1 252005Z 16007KT 19/18 A2999 RMK A01 T01870177  RH  093%=      5-min Rain = 0.01
KBY1 252006Z 17008KT 19/18 A30 RMK A01 T01870177  RH  094%=      5-min Rain = 0
KBY1 252007Z 17011KT 19/18 A3001 RMK A01 T01860177  RH  094%=      5-min Rain = 0.01
KBY1 252008Z 17011KT 19/17 A3001 RMK A01 T01850174  RH  093%=      5-min Rain = 0.01
KBY1 252009Z 18012G17KT 18/17 A3002 RMK A01 T01840168  RH  091%=      5-min Rain = 0.01
KBY1 252010Z 18013KT 18/16 A3002 RMK A01 T01830163  RH  088%=      5-min Rain = 0
KBY1 252011Z 20013KT 18/16 A3001 RMK A01 T01820158  RH  086%=      5-min Rain = 0.01
KBY1 252012Z 21014G19KT 18/15 A3001 RMK A01 T01810152  RH  083%=      5-min Rain = 0.01
KBY1 252013Z 21017KT 18/14 A30 RMK A01 T01810138  RH  076%=      5-min Rain = 0.01
KBY1 252014Z 21015KT 18/13 A2999 RMK A01 T01830134  RH  073%=      5-min Rain = 0.01
KBY1 252015Z 22018G23KT 18/13 A2999 RMK A01 T01810131  RH  073%=      5-min Rain = 0.02
KBY1 252016Z 22018G23KT 18/13 A30 RMK A01 T01780131  RH  074%=      5-min Rain = 0.02
KBY1 252017Z 21021G26KT 17/13 A30 RMK A01 T01740131  RH  076%=      5-min Rain = 0.03
KBY1 252018Z 21015G20KT 17/13 A30 RMK A01 T01680133  RH  080%=      5-min Rain = 0.03
KBY1 252019Z 20016G21KT 16/13 A30 RMK A01 T01630130  RH  081%=      5-min Rain = 0.02
KBY1 252020Z 18016KT 16/13 A30 RMK A01 T01610130  RH  082%=      5-min Rain = 0.01
KBY1 252021Z 18016KT 16/13 A30 RMK A01 T01590129  RH  082%=      5-min Rain = 0.01
KBY1 252022Z 17015KT 16/13 A30 RMK A01 T01580130  RH  083%=      5-min Rain = 0.01
KBY1 252023Z 16013KT 16/13 A3001 RMK A01 T01560132  RH  086%=      5-min Rain = 0
KBY1 252024Z 16015KT 15/13 A3001 RMK A01 T01540134  RH  088%=      5-min Rain = 0.01
KBY1 252025Z 16013KT 15/13 A3001 RMK A01 T01530133  RH  088%=      5-min Rain = 0.01
KBY1 252026Z 16011KT 15/13 A3001 RMK A01 T01520133  RH  089%=      5-min Rain = 0
KBY1 252027Z 18009G15KT 15/13 A3001 RMK A01 T01510133  RH  089%=      5-min Rain = 0.01
KBY1 252028Z 18010G15KT 15/13 A3001 RMK A01 T01500133  RH  090%=      5-min Rain = 0.01
KBY1 252029Z 17011KT 15/13 A3001 RMK A01 T01500134  RH  090%=      5-min Rain = 0.01
KBY1 252030Z 17013G19KT 15/13 A30 RMK A01 T01510133  RH  089%=      5-min Rain = 0
KBY1 252031Z 16012KT 15/13 A30 RMK A01 T01520133  RH  089%=      5-min Rain = 0.01
KBY1 252032Z 15011KT 15/13 A2998 RMK A01 T01520134  RH  089%=      5-min Rain = 0.01
KBY1 252033Z 14010G15KT 15/13 A2997 RMK A01 T01520134  RH  089%=      5-min Rain = 0
KBY1 252034Z 14015G21KT 15/14 A2996 RMK A01 T01520135  RH  089%=      5-min Rain = 0.01
KBY1 252035Z 14021G27KT 15/13 A2996 RMK A01 T01520132  RH  087%=      5-min Rain = 0
KBY1 252036Z 15018G23KT 15/13 A2995 RMK A01 T01540129  RH  085%=      5-min Rain = 0
KBY1 252037Z 16015G20KT 16/13 A2995 RMK A01 T01560129  RH  084%=      5-min Rain = 0
KBY1 252038Z 15016G23KT 16/13 A2995 RMK A01 T01560128  RH  084%=      5-min Rain = 0
KBY1 252039Z 15014KT 16/13 A2995 RMK A01 T01560127  RH  083%=      5-min Rain = 0
KBY1 252040Z 15016KT 16/13 A2994 RMK A01 T01580125  RH  081%=      5-min Rain = 0
KBY1 252041Z 14015KT 16/12 A2994 RMK A01 T01590124  RH  080%=      5-min Rain = 0
KBY1 252042Z 14013KT 16/13 A2993 RMK A01 T01590126  RH  081%=      5-min Rain = 0
KBY1 252043Z 15017KT 16/13 A2993 RMK A01 T01600127  RH  081%=      5-min Rain = 0
KBY1 252044Z 18013KT 17/13 A2994 RMK A01 T01650127  RH  078%=      5-min Rain = 0
KBY1 252045Z 18013KT 17/13 A2994 RMK A01 T01660129  RH  079%=      5-min Rain = 0
KBY1 252046Z 16011KT 17/13 A2994 RMK A01 T01670127  RH  077%=      5-min Rain = 0
KBY1 252047Z 15010KT 17/13 A2994 RMK A01 T01680128  RH  077%=      5-min Rain = 0.01
KBY1 252048Z 15010G16KT 17/13 A2993 RMK A01 T01670130  RH  079%=      5-min Rain = 0
KBY1 252049Z 15012KT 16/13 A2994 RMK A01 T01640133  RH  081%=      5-min Rain = 0
KBY1 252050Z 16011KT 16/13 A2995 RMK A01 T01610134  RH  084%=      5-min Rain = 0
KBY1 252051Z 17011KT 16/13 A2995 RMK A01 T01600134  RH  085%=      5-min Rain = 0
KBY1 252052Z 17013KT 16/13 A2995 RMK A01 T01600133  RH  084%=      5-min Rain = 0
KBY1 252053Z 17013G18KT 16/13 A2995 RMK A01 T01640134  RH  083%=      5-min Rain = 0
KBY1 252054Z 17013KT 17/13 A2994 RMK A01 T01670134  RH  081%=      5-min Rain = 0
KBY1 252055Z 17016KT 17/14 A2994 RMK A01 T01710136  RH  080%=      5-min Rain = 0
KBY1 252056Z 17014G19KT 18/14 A2994 RMK A01 T01750136  RH  078%=      5-min Rain = 0
KBY1 252057Z 16013G18KT 18/14 A2993 RMK A01 T01790136  RH  076%=      5-min Rain = 0
KBY1 252058Z 17016KT 18/13 A2993 RMK A01 T01810133  RH  073%=      5-min Rain = 0
KBY1 252059Z 17012KT 18/14 A2994 RMK A01 T01830135  RH  073%=      5-min Rain = 0
KBY1 252100Z 18015G21KT 18/13 A2993 RMK A01 T01820134  RH  073%=      5-min Rain = 0
KBY1 252101Z 17014KT 18/14 A2993 RMK A01 T01820136  RH  074%=      5-min Rain = 0
KBY1 252102Z 16014KT 18/14 A2992 RMK A01 T01820135  RH  074%=      5-min Rain = 0
KBY1 252103Z 16011KT 18/14 A2992 RMK A01 T01820136  RH  075%=      5-min Rain = 0
KBY1 252104Z 16011KT 18/14 A2991 RMK A01 T01840137  RH  074%=      5-min Rain = 0
KBY1 252105Z 15012KT 19/14 A2991 RMK A01 T01860138  RH  074%=      5-min Rain = 0
KBY1 252106Z 15011KT 19/14 A2991 RMK A01 T01880140  RH  073%=      5-min Rain = 0
KBY1 252107Z 14014KT 19/14 A2991 RMK A01 T01890142  RH  074%=      5-min Rain = 0
KBY1 252108Z 15013KT 19/15 A2991 RMK A01 T01900145  RH  075%=      5-min Rain = 0
KBY1 252109Z 15012KT 19/14 A299 RMK A01 T01910144  RH  074%=      5-min Rain = 0
KBY1 252110Z 15013KT 19/14 A2991 RMK A01 T01920144  RH  074%=      5-min Rain = 0
KBY1 252111Z 16011KT 19/15 A2991 RMK A01 T01920145  RH  074%=      5-min Rain = 0
KBY1 252112Z 16009KT 19/15 A2991 RMK A01 T01930148  RH  075%=      5-min Rain = 0
KBY1 252113Z 16009KT 19/15 A2991 RMK A01 T01930148  RH  075%=      5-min Rain = 0
KBY1 252114Z 16008KT 19/15 A2991 RMK A01 T01940145  RH  073%=      5-min Rain = 0
KBY1 252115Z 16006KT 20/15 A2992 RMK A01 T01950146  RH  073%=      5-min Rain = 0
KBY1 252116Z 16003KT 20/15 A2993 RMK A01 T01970147  RH  073%=      5-min Rain = 0
KBY1 252117Z 32002G7KT 20/15 A2994 RMK A01 T01980151  RH  074%=      5-min Rain = 0
KBY1 252118Z 32008KT 20/16 A2995 RMK A01 T02000155  RH  075%=      5-min Rain = 0
KBY1 252119Z 32013KT 20/16 A2995 RMK A01 T02040161  RH  076%=      5-min Rain = 0
KBY1 252120Z 31013KT 20/15 A2995 RMK A01 T02040152  RH  072%=      5-min Rain = 0
KBY1 252121Z 33010KT 20/15 A2995 RMK A01 T02010147  RH  071%=      5-min Rain = 0
KBY1 252122Z 33008KT 20/15 A2995 RMK A01 T01990150  RH  073%=      5-min Rain = 0
KBY1 252123Z 35007KT 20/16 A2995 RMK A01 T02000157  RH  076%=      5-min Rain = 0
KBY1 252124Z 00008KT 20/16 A2994 RMK A01 T02030156  RH  074%=      5-min Rain = 0
KBY1 252125Z 02007KT 21/15 A2994 RMK A01 T02050154  RH  073%=      5-min Rain = 0
KBY1 252126Z 03007KT 21/15 A2994 RMK A01 T02060153  RH  071%=      5-min Rain = 0
KBY1 252127Z 06005KT 21/15 A2993 RMK A01 T02080145  RH  067%=      5-min Rain = 0
KBY1 252128Z 12003KT 21/15 A2993 RMK A01 T02090147  RH  068%=      5-min Rain = 0
KBY1 252129Z 16005G11KT 21/15 A2993 RMK A01 T02100145  RH  066%=      5-min Rain = 0
KBY1 252130Z 17008KT 21/14 A2993 RMK A01 T02100141  RH  064%=      5-min Rain = 0
KBY1 252131Z 18008KT 21/15 A2993 RMK A01 T02100148  RH  067%=      5-min Rain = 0
KBY1 252132Z 16007KT 21/15 A2993 RMK A01 T02110150  RH  068%=      5-min Rain = 0
KBY1 252133Z 17008KT 21/15 A2993 RMK A01 T02110150  RH  068%=      5-min Rain = 0
KBY1 252134Z 16009KT 21/15 A2993 RMK A01 T02120154  RH  070%=      5-min Rain = 0
KBY1 252135Z 15012KT 21/15 A2992 RMK A01 T02120154  RH  070%=      5-min Rain = 0
KBY1 252136Z 15008KT 21/16 A2992 RMK A01 T02110158  RH  072%=      5-min Rain = 0
KBY1 252137Z 15009KT 21/17 A2992 RMK A01 T02110165  RH  075%=      5-min Rain = 0
KBY1 252138Z 16011KT 21/16 A2992 RMK A01 T02120158  RH  072%=      5-min Rain = 0
KBY1 252139Z 16009KT 21/16 A2992 RMK A01 T02120155  RH  070%=      5-min Rain = 0
KBY1 252140Z 16008KT 21/15 A2992 RMK A01 T02100150  RH  068%=      5-min Rain = 0
KBY1 252141Z 15010KT 21/15 A2992 RMK A01 T02090150  RH  069%=      5-min Rain = 0
KBY1 252142Z 16012KT 21/15 A2992 RMK A01 T02080154  RH  071%=      5-min Rain = 0
KBY1 252143Z 15012KT 21/15 A2992 RMK A01 T02090154  RH  071%=      5-min Rain = 0
KBY1 252144Z 16011KT 21/15 A2992 RMK A01 T02090154  RH  071%=      5-min Rain = 0
KBY1 252145Z 16008KT 21/16 A2992 RMK A01 T02090155  RH  071%=      5-min Rain = 0
KBY1 252146Z 14011KT 21/16 A2992 RMK A01 T02090158  RH  072%=      5-min Rain = 0
KBY1 252147Z 14013KT 21/16 A2992 RMK A01 T02100160  RH  073%=      5-min Rain = 0
KBY1 252148Z 14010KT 21/16 A2992 RMK A01 T02110163  RH  074%=      5-min Rain = 0
KBY1 252149Z 15013KT 21/16 A2992 RMK A01 T02120161  RH  073%=      5-min Rain = 0
KBY1 252150Z 14011KT 21/16 A2992 RMK A01 T02110161  RH  073%=      5-min Rain = 0
KBY1 252151Z 14012KT 21/16 A2992 RMK A01 T02100162  RH  074%=      5-min Rain = 0
KBY1 252152Z 14010KT 21/16 A2992 RMK A01 T02090163  RH  075%=      5-min Rain = 0
KBY1 252153Z 14010KT 21/17 A2992 RMK A01 T02090168  RH  077%=      5-min Rain = 0
KBY1 252154Z 13010KT 21/17 A2992 RMK A01 T02090169  RH  078%=      5-min Rain = 0
KBY1 252155Z 13010KT 21/16 A2992 RMK A01 T02090164  RH  075%=      5-min Rain = 0
KBY1 252156Z 13009KT 21/17 A2992 RMK A01 T02080166  RH  077%=      5-min Rain = 0
KBY1 252157Z 12010KT 21/17 A2992 RMK A01 T02070167  RH  078%=      5-min Rain = 0
KBY1 252158Z 12011KT 21/17 A2992 RMK A01 T02070167  RH  078%=      5-min Rain = 0
KBY1 252159Z 12011KT 21/17 A2992 RMK A01 T02070168  RH  078%=      5-min Rain = 0
KBY1 252200Z 13011KT 21/17 A2992 RMK A01 T02080166  RH  077%=      5-min Rain = 0
KBY1 252201Z 12010KT 21/17 A2992 RMK A01 T02070166  RH  077%=      5-min Rain = 0
KBY1 252202Z 13010KT 21/17 A2992 RMK A01 T02070167  RH  078%=      5-min Rain = 0
KBY1 252203Z 13009KT 21/17 A2992 RMK A01 T02070167  RH  078%=      5-min Rain = 0
KBY1 252204Z 13009KT 21/17 A2992 RMK A01 T02070169  RH  079%=      5-min Rain = 0
KBY1 252205Z 12011KT 21/17 A2992 RMK A01 T02080168  RH  078%=      5-min Rain = 0
KBY1 252206Z 12007KT 21/17 A2992 RMK A01 T02090167  RH  077%=      5-min Rain = 0
KBY1 252207Z 12007KT 21/17 A2992 RMK A01 T02090167  RH  077%=      5-min Rain = 0
KBY1 252208Z 13008KT 21/17 A2992 RMK A01 T02090167  RH  077%=      5-min Rain = 0
KBY1 252209Z 13010KT 21/17 A2993 RMK A01 T02100167  RH  076%=      5-min Rain = 0
KBY1 252210Z 13008KT 21/17 A2993 RMK A01 T02110167  RH  076%=      5-min Rain = 0
KBY1 252211Z 15007KT 21/16 A2993 RMK A01 T02120163  RH  074%=      5-min Rain = 0
KBY1 252212Z 14008KT 21/17 A2993 RMK A01 T02130167  RH  075%=      5-min Rain = 0
KBY1 252213Z 15010KT 21/17 A2993 RMK A01 T02140166  RH  074%=      5-min Rain = 0
KBY1 252214Z 16014KT 22/16 A2992 RMK A01 T02150164  RH  072%=      5-min Rain = 0
KBY1 252215Z 15012KT 22/16 A2992 RMK A01 T02160163  RH  072%=      5-min Rain = 0
KBY1 252216Z 14010KT 22/16 A2992 RMK A01 T02160164  RH  072%=      5-min Rain = 0
KBY1 252217Z 14010KT 22/17 A2992 RMK A01 T02170166  RH  073%=      5-min Rain = 0
KBY1 252218Z 14009KT 22/16 A2992 RMK A01 T02180164  RH  072%=      5-min Rain = 0
KBY1 252219Z 15009KT 22/17 A2992 RMK A01 T02190166  RH  072%=      5-min Rain = 0
KBY1 252220Z 13010KT 22/17 A2992 RMK A01 T02200167  RH  072%=      5-min Rain = 0
KBY1 252221Z 12009KT 22/17 A2992 RMK A01 T02210165  RH  070%=      5-min Rain = 0
KBY1 252222Z 14009KT 22/16 A2992 RMK A01 T02210164  RH  070%=      5-min Rain = 0
KBY1 252223Z 14010KT 22/17 A2992 RMK A01 T02200168  RH  072%=      5-min Rain = 0
KBY1 252224Z 15010KT 22/17 A2992 RMK A01 T02210167  RH  072%=      5-min Rain = 0
KBY1 252225Z 13007KT 22/17 A2992 RMK A01 T02210168  RH  072%=      5-min Rain = 0
KBY1 252226Z 14008KT 22/17 A2992 RMK A01 T02220168  RH  071%=      5-min Rain = 0
KBY1 252227Z 15009KT 22/17 A2992 RMK A01 T02230169  RH  072%=      5-min Rain = 0
KBY1 252228Z 16008KT 22/17 A2992 RMK A01 T02230170  RH  072%=      5-min Rain = 0
KBY1 252229Z 16010KT 22/17 A2991 RMK A01 T02230167  RH  071%=      5-min Rain = 0
KBY1 252230Z 17008KT 22/17 A2991 RMK A01 T02230169  RH  072%=      5-min Rain = 0
KBY1 252231Z 16007KT 22/17 A2991 RMK A01 T02230170  RH  072%=      5-min Rain = 0
KBY1 252232Z 16007KT 23/17 A2991 RMK A01 T02250168  RH  070%=      5-min Rain = 0
KBY1 252233Z 16008KT 23/17 A2991 RMK A01 T02270170  RH  071%=      5-min Rain = 0
KBY1 252234Z 16009KT 23/17 A2991 RMK A01 T02280167  RH  068%=      5-min Rain = 0
KBY1 252235Z 16011KT 23/17 A2991 RMK A01 T02270166  RH  068%=      5-min Rain = 0
KBY1 252236Z 16010KT 23/16 A2991 RMK A01 T02270164  RH  067%=      5-min Rain = 0
KBY1 252237Z 16011KT 23/16 A2991 RMK A01 T02270162  RH  067%=      5-min Rain = 0
KBY1 252238Z 16010KT 23/16 A2991 RMK A01 T02270161  RH  066%=      5-min Rain = 0
KBY1 252239Z 15007KT 23/16 A299 RMK A01 T02270163  RH  067%=      5-min Rain = 0
KBY1 252240Z 15010KT 23/16 A299 RMK A01 T02270164  RH  067%=      5-min Rain = 0
KBY1 252241Z 14007KT 23/17 A299 RMK A01 T02280167  RH  068%=      5-min Rain = 0
KBY1 252242Z 14007KT 23/17 A299 RMK A01 T02290168  RH  068%=      5-min Rain = 0
KBY1 252243Z 14009KT 23/17 A299 RMK A01 T02310169  RH  068%=      5-min Rain = 0
KBY1 252244Z 15008KT 23/17 A299 RMK A01 T02330167  RH  067%=      5-min Rain = 0
KBY1 252245Z 15009KT 23/17 A299 RMK A01 T02330168  RH  067%=      5-min Rain = 0
KBY1 252246Z 15008KT 23/17 A2991 RMK A01 T02340173  RH  068%=      5-min Rain = 0
KBY1 252247Z 14009KT 24/17 A2991 RMK A01 T02350169  RH  066%=      5-min Rain = 0
KBY1 252248Z 16009KT 24/17 A2991 RMK A01 T02350172  RH  067%=      5-min Rain = 0
KBY1 252249Z 14010KT 24/17 A2991 RMK A01 T02360169  RH  066%=      5-min Rain = 0
KBY1 252250Z 14011KT 24/17 A2991 RMK A01 T02360168  RH  065%=      5-min Rain = 0
KBY1 252251Z 15012KT 24/17 A2991 RMK A01 T02360165  RH  064%=      5-min Rain = 0
KBY1 252252Z 15010KT 24/17 A2991 RMK A01 T02350165  RH  065%=      5-min Rain = 0
KBY1 252253Z 14011KT 23/17 A2991 RMK A01 T02340168  RH  066%=      5-min Rain = 0
KBY1 252254Z 14011KT 23/17 A2991 RMK A01 T02340166  RH  066%=      5-min Rain = 0
KBY1 252255Z 15009KT 24/17 A299 RMK A01 T02350169  RH  067%=      5-min Rain = 0
KBY1 252256Z 14007KT 24/17 A299 RMK A01 T02360169  RH  066%=      5-min Rain = 0
KBY1 252257Z 14007KT 24/17 A299 RMK A01 T02370174  RH  068%=      5-min Rain = 0
KBY1 252258Z 13008KT 24/17 A299 RMK A01 T02390174  RH  067%=      5-min Rain = 0
KBY1 252259Z 12010KT 24/17 A299 RMK A01 T02390170  RH  065%=      5-min Rain = 0
KBY1 252300Z 14010KT 24/17 A299 RMK A01 T02390169  RH  065%=      5-min Rain = 0
KBY1 252301Z 13011KT 24/17 A299 RMK A01 T02380169  RH  065%=      5-min Rain = 0
KBY1 252302Z 13011KT 24/17 A299 RMK A01 T02380170  RH  066%=      5-min Rain = 0
KBY1 252303Z 13011KT 24/17 A299 RMK A01 T02380168  RH  065%=      5-min Rain = 0
KBY1 252304Z 13012KT 24/17 A2989 RMK A01 T02380170  RH  065%=      5-min Rain = 0
KBY1 252305Z 14012KT 24/17 A2989 RMK A01 T02380168  RH  065%=      5-min Rain = 0
KBY1 252306Z 14010KT 24/17 A2989 RMK A01 T02370170  RH  066%=      5-min Rain = 0
KBY1 252307Z 13010G15KT 24/17 A2989 RMK A01 T02380171  RH  066%=      5-min Rain = 0
KBY1 252308Z 13015KT 24/17 A2989 RMK A01 T02380171  RH  066%=      5-min Rain = 0
KBY1 252309Z 13014KT 24/17 A299 RMK A01 T02380170  RH  066%=      5-min Rain = 0
KBY1 252310Z 13013KT 24/17 A299 RMK A01 T02370172  RH  067%=      5-min Rain = 0
KBY1 252311Z 13013KT 24/17 A299 RMK A01 T02370171  RH  066%=      5-min Rain = 0
KBY1 252312Z 13012KT 24/17 A2989 RMK A01 T02360171  RH  067%=      5-min Rain = 0
KBY1 252313Z 13012KT 24/17 A2989 RMK A01 T02360172  RH  067%=      5-min Rain = 0
KBY1 252314Z 12011G17KT 24/18 A299 RMK A01 T02370176  RH  069%=      5-min Rain = 0
KBY1 252315Z 12014KT 24/18 A299 RMK A01 T02380177  RH  069%=      5-min Rain = 0
KBY1 252316Z 12016KT 24/18 A299 RMK A01 T02380175  RH  068%=      5-min Rain = 0
KBY1 252317Z 13015KT 24/17 A299 RMK A01 T02360174  RH  068%=      5-min Rain = 0
KBY1 252318Z 13013KT 23/18 A299 RMK A01 T02340176  RH  070%=      5-min Rain = 0
KBY1 252319Z 12011KT 23/18 A299 RMK A01 T02340177  RH  070%=      5-min Rain = 0
KBY1 252320Z 13012KT 23/18 A299 RMK A01 T02340176  RH  070%=      5-min Rain = 0
KBY1 252321Z 12011KT 23/18 A299 RMK A01 T02340178  RH  070%=      5-min Rain = 0
KBY1 252322Z 12012KT 23/18 A299 RMK A01 T02340178  RH  071%=      5-min Rain = 0
KBY1 252323Z 11012KT 23/18 A299 RMK A01 T02340179  RH  071%=      5-min Rain = 0
KBY1 252324Z 12014KT 23/18 A299 RMK A01 T02340179  RH  071%=      5-min Rain = 0
KBY1 252325Z 12012KT 23/18 A299 RMK A01 T02330179  RH  071%=      5-min Rain = 0
KBY1 252326Z 11011KT 23/18 A299 RMK A01 T02320178  RH  071%=      5-min Rain = 0
KBY1 252327Z 12013KT 23/18 A299 RMK A01 T02320177  RH  071%=      5-min Rain = 0
KBY1 252328Z 11011KT 23/18 A299 RMK A01 T02320178  RH  072%=      5-min Rain = 0
KBY1 252329Z 11011KT 23/18 A299 RMK A01 T02320178  RH  072%=      5-min Rain = 0
KBY1 252330Z 12011KT 23/18 A299 RMK A01 T02320180  RH  072%=      5-min Rain = 0
KBY1 252331Z 12011KT 23/18 A299 RMK A01 T02330178  RH  071%=      5-min Rain = 0
KBY1 252332Z 12012KT 23/18 A299 RMK A01 T02330178  RH  071%=      5-min Rain = 0
KBY1 252333Z 12011KT 23/18 A2989 RMK A01 T02330176  RH  070%=      5-min Rain = 0
KBY1 252334Z 12013KT 23/18 A2989 RMK A01 T02330176  RH  070%=      5-min Rain = 0
KBY1 252335Z 12012KT 23/18 A299 RMK A01 T02320175  RH  070%=      5-min Rain = 0
KBY1 252336Z 12012KT 23/17 A299 RMK A01 T02320173  RH  069%=      5-min Rain = 0
KBY1 252337Z 12013G18KT 23/17 A299 RMK A01 T02310174  RH  070%=      5-min Rain = 0
KBY1 252338Z 11013KT 23/17 A299 RMK A01 T02300174  RH  071%=      5-min Rain = 0
KBY1 252339Z 11014G19KT 23/17 A299 RMK A01 T02280173  RH  071%=      5-min Rain = 0
KBY1 252340Z 12013KT 23/17 A299 RMK A01 T02250174  RH  073%=      5-min Rain = 0
KBY1 252341Z 11012KT 22/18 A299 RMK A01 T02240175  RH  074%=      5-min Rain = 0
KBY1 252342Z 11012KT 22/18 A299 RMK A01 T02240176  RH  074%=      5-min Rain = 0
KBY1 252343Z 11011KT 22/18 A299 RMK A01 T02240176  RH  074%=      5-min Rain = 0
KBY1 252344Z 11012KT 23/18 A299 RMK A01 T02250178  RH  075%=      5-min Rain = 0
KBY1 252345Z 12012KT 23/18 A299 RMK A01 T02250176  RH  074%=      5-min Rain = 0
KBY1 252346Z 11011KT 23/18 A299 RMK A01 T02250178  RH  075%=      5-min Rain = 0
KBY1 252347Z 12010KT 23/18 A299 RMK A01 T02260179  RH  075%=      5-min Rain = 0
KBY1 252348Z 11011KT 23/18 A299 RMK A01 T02260178  RH  074%=      5-min Rain = 0
KBY1 252349Z 11011KT 23/18 A299 RMK A01 T02270179  RH  074%=      5-min Rain = 0
KBY1 252350Z 12013KT 23/18 A299 RMK A01 T02270178  RH  074%=      5-min Rain = 0
KBY1 252351Z 12012KT 23/18 A299 RMK A01 T02270178  RH  074%=      5-min Rain = 0
KBY1 252352Z 12011KT 23/18 A299 RMK A01 T02280177  RH  073%=      5-min Rain = 0
KBY1 252353Z 12011KT 23/18 A299 RMK A01 T02280177  RH  073%=      5-min Rain = 0
KBY1 252354Z 12011KT 23/18 A299 RMK A01 T02290176  RH  072%=      5-min Rain = 0
KBY1 252355Z 12012KT 23/18 A299 RMK A01 T02290176  RH  072%=      5-min Rain = 0
KBY1 252356Z 11012KT 23/18 A299 RMK A01 T02290176  RH  072%=      5-min Rain = 0
KBY1 252357Z 12013KT 23/18 A299 RMK A01 T02290176  RH  072%=      5-min Rain = 0
KBY1 252358Z 12011KT 23/18 A299 RMK A01 T02300178  RH  072%=      5-min Rain = 0
KBY1 252359Z 12011KT 23/18 A299 RMK A01 T02300177  RH  072%=      5-min Rain = 0
KBY1 260000Z 12011KT 23/18 A2991 RMK A01 T02300178  RH  072%=      5-min Rain = 0
KBY1 260001Z 11009KT 23/18 A299 RMK A01 T02300181  RH  073%=      5-min Rain = 0
KBY1 260002Z 12007KT 23/18 A299 RMK A01 T02300180  RH  073%=      5-min Rain = 0
KBY1 260003Z 10008KT 23/18 A299 RMK A01 T02300180  RH  073%=      5-min Rain = 0
KBY1 260004Z 11010KT 23/18 A299 RMK A01 T02290180  RH  074%=      5-min Rain = 0
KBY1 260005Z 11008KT 23/18 A299 RMK A01 T02290179  RH  074%=      5-min Rain = 0
KBY1 260006Z 11008KT 23/18 A299 RMK A01 T02290181  RH  075%=      5-min Rain = 0
KBY1 260007Z 11008KT 23/18 A299 RMK A01 T02300183  RH  075%=      5-min Rain = 0
KBY1 260008Z 11010KT 23/18 A299 RMK A01 T02310182  RH  074%=      5-min Rain = 0
KBY1 260009Z 14010KT 23/18 A299 RMK A01 T02320179  RH  072%=      5-min Rain = 0
KBY1 260010Z 13013KT 23/18 A299 RMK A01 T02330175  RH  070%=      5-min Rain = 0
KBY1 260011Z 14012KT 23/17 A299 RMK A01 T02330173  RH  069%=      5-min Rain = 0
KBY1 260012Z 13013KT 23/17 A299 RMK A01 T02330173  RH  069%=      5-min Rain = 0
KBY1 260013Z 13011KT 23/17 A299 RMK A01 T02330173  RH  069%=      5-min Rain = 0
KBY1 260014Z 13011KT 23/17 A299 RMK A01 T02330173  RH  069%=      5-min Rain = 0
KBY1 260015Z 14012KT 23/17 A299 RMK A01 T02330173  RH  069%=      5-min Rain = 0
KBY1 260016Z 15012KT 23/17 A299 RMK A01 T02320171  RH  069%=      5-min Rain = 0
KBY1 260017Z 15009KT 23/17 A299 RMK A01 T02310171  RH  069%=      5-min Rain = 0
KBY1 260018Z 15006KT 23/17 A299 RMK A01 T02310173  RH  070%=      5-min Rain = 0
KBY1 260019Z 13007G14KT 23/18 A299 RMK A01 T02310175  RH  071%=      5-min Rain = 0
KBY1 260020Z 14009KT 23/17 A299 RMK A01 T02310173  RH  070%=      5-min Rain = 0
KBY1 260021Z 15006KT 23/17 A299 RMK A01 T02310174  RH  070%=      5-min Rain = 0
KBY1 260022Z 15004KT 23/18 A299 RMK A01 T02310175  RH  071%=      5-min Rain = 0
KBY1 260023Z 15005KT 23/18 A299 RMK A01 T02310176  RH  071%=      5-min Rain = 0
KBY1 260024Z 14007KT 23/18 A299 RMK A01 T02320179  RH  072%=      5-min Rain = 0
KBY1 260025Z 15010G17KT 23/18 A299 RMK A01 T02320179  RH  072%=      5-min Rain = 0
KBY1 260026Z 15011G17KT 23/18 A299 RMK A01 T02320178  RH  071%=      5-min Rain = 0
KBY1 260027Z 15012KT 23/18 A299 RMK A01 T02320179  RH  072%=      5-min Rain = 0
KBY1 260028Z 15009KT 23/18 A299 RMK A01 T02310180  RH  073%=      5-min Rain = 0
KBY1 260029Z 15015KT 23/18 A299 RMK A01 T02310180  RH  073%=      5-min Rain = 0
KBY1 260030Z 15011KT 23/18 A299 RMK A01 T02310180  RH  073%=      5-min Rain = 0
KBY1 260031Z 15012KT 23/18 A299 RMK A01 T02310181  RH  073%=      5-min Rain = 0
KBY1 260032Z 16012KT 23/18 A299 RMK A01 T02310181  RH  073%=      5-min Rain = 0
KBY1 260033Z 16013KT 23/18 A299 RMK A01 T02310181  RH  073%=      5-min Rain = 0
KBY1 260034Z 15015G20KT 23/18 A299 RMK A01 T02310178  RH  072%=      5-min Rain = 0
KBY1 260035Z 14015KT 23/18 A299 RMK A01 T02300178  RH  072%=      5-min Rain = 0
KBY1 260036Z 15011KT 23/18 A299 RMK A01 T02300179  RH  073%=      5-min Rain = 0
KBY1 260037Z 14013KT 23/18 A299 RMK A01 T02300177  RH  072%=      5-min Rain = 0
KBY1 260038Z 14013G18KT 23/18 A299 RMK A01 T02300175  RH  071%=      5-min Rain = 0
KBY1 260039Z 14010KT 23/18 A299 RMK A01 T02300176  RH  071%=      5-min Rain = 0
KBY1 260040Z 14009KT 23/18 A299 RMK A01 T02300177  RH  072%=      5-min Rain = 0
KBY1 260041Z 14010KT 23/18 A299 RMK A01 T02300178  RH  072%=      5-min Rain = 0
KBY1 260042Z 13012KT 23/18 A299 RMK A01 T02300176  RH  072%=      5-min Rain = 0
KBY1 260043Z 14015G21KT 23/17 A299 RMK A01 T02300173  RH  071%=      5-min Rain = 0
KBY1 260044Z 14016KT 23/17 A2991 RMK A01 T02290172  RH  070%=      5-min Rain = 0
KBY1 260045Z 14014KT 23/17 A2991 RMK A01 T02290173  RH  071%=      5-min Rain = 0
KBY1 260046Z 14012KT 23/17 A299 RMK A01 T02280174  RH  071%=      5-min Rain = 0
KBY1 260047Z 14012KT 23/17 A299 RMK A01 T02280174  RH  072%=      5-min Rain = 0
KBY1 260048Z 14009KT 23/18 A299 RMK A01 T02270176  RH  073%=      5-min Rain = 0
KBY1 260049Z 15013G18KT 23/18 A299 RMK A01 T02270175  RH  072%=      5-min Rain = 0
KBY1 260050Z 15012G20KT 23/17 A299 RMK A01 T02270173  RH  072%=      5-min Rain = 0
KBY1 260051Z 15015KT 23/18 A299 RMK A01 T02260175  RH  072%=      5-min Rain = 0
KBY1 260052Z 15013KT 23/17 A299 RMK A01 T02260174  RH  072%=      5-min Rain = 0
KBY1 260053Z 14014G19KT 23/18 A299 RMK A01 T02250175  RH  073%=      5-min Rain = 0
KBY1 260054Z 15012KT 23/17 A299 RMK A01 T02250174  RH  073%=      5-min Rain = 0
KBY1 260055Z 15010KT 23/18 A299 RMK A01 T02250175  RH  073%=      5-min Rain = 0
KBY1 260056Z 14015KT 22/17 A299 RMK A01 T02240173  RH  073%=      5-min Rain = 0
KBY1 260057Z 15014G21KT 22/17 A299 RMK A01 T02240171  RH  072%=      5-min Rain = 0
KBY1 260058Z 14013KT 22/17 A299 RMK A01 T02240173  RH  073%=      5-min Rain = 0
KBY1 260059Z 15015KT 22/17 A299 RMK A01 T02230171  RH  072%=      5-min Rain = 0
KBY1 260100Z 15011G16KT 22/17 A299 RMK A01 T02230171  RH  073%=      5-min Rain = 0
KBY1 260101Z 15007KT 22/17 A299 RMK A01 T02220172  RH  073%=      5-min Rain = 0
KBY1 260102Z 15008KT 22/17 A299 RMK A01 T02220173  RH  074%=      5-min Rain = 0
KBY1 260103Z 15009KT 22/17 A2989 RMK A01 T02210171  RH  073%=      5-min Rain = 0
KBY1 260104Z 15010G15KT 22/17 A299 RMK A01 T02210171  RH  073%=      5-min Rain = 0
KBY1 260105Z 15010KT 22/17 A2989 RMK A01 T02210170  RH  073%=      5-min Rain = 0
KBY1 260106Z 16011KT 22/17 A2989 RMK A01 T02200170  RH  073%=      5-min Rain = 0
KBY1 260107Z 16009KT 22/17 A2989 RMK A01 T02190169  RH  073%=      5-min Rain = 0
KBY1 260108Z 16009KT 22/17 A2989 RMK A01 T02190169  RH  073%=      5-min Rain = 0
KBY1 260109Z 14010KT 22/17 A2989 RMK A01 T02190169  RH  073%=      5-min Rain = 0
KBY1 260110Z 15007KT 22/17 A2989 RMK A01 T02180169  RH  074%=      5-min Rain = 0
KBY1 260111Z 15009KT 22/17 A2989 RMK A01 T02180169  RH  074%=      5-min Rain = 0
KBY1 260112Z 15007KT 22/17 A2989 RMK A01 T02170168  RH  074%=      5-min Rain = 0
KBY1 260113Z 15009KT 22/17 A2989 RMK A01 T02170167  RH  073%=      5-min Rain = 0
KBY1 260114Z 15007KT 22/17 A2989 RMK A01 T02170166  RH  073%=      5-min Rain = 0
KBY1 260115Z 15010KT 22/17 A2989 RMK A01 T02170165  RH  072%=      5-min Rain = 0
KBY1 260116Z 16010KT 22/17 A2989 RMK A01 T02170165  RH  072%=      5-min Rain = 0
KBY1 260117Z 14006KT 22/17 A2989 RMK A01 T02170165  RH  072%=      5-min Rain = 0
KBY1 260118Z 15008KT 22/17 A2989 RMK A01 T02170166  RH  073%=      5-min Rain = 0
KBY1 260119Z 15008KT 22/17 A299 RMK A01 T02160165  RH  072%=      5-min Rain = 0
KBY1 260120Z 15006KT 22/16 A299 RMK A01 T02160164  RH  072%=      5-min Rain = 0
KBY1 260121Z 14005KT 22/17 A299 RMK A01 T02160165  RH  073%=      5-min Rain = 0
KBY1 260122Z 14007KT 22/17 A299 RMK A01 T02160165  RH  073%=      5-min Rain = 0
KBY1 260123Z 14008KT 22/16 A299 RMK A01 T02160163  RH  072%=      5-min Rain = 0
KBY1 260124Z 14009KT 22/16 A299 RMK A01 T02160162  RH  071%=      5-min Rain = 0
KBY1 260125Z 12007KT 22/16 A299 RMK A01 T02160163  RH  072%=      5-min Rain = 0
KBY1 260126Z 10005KT 22/17 A299 RMK A01 T02160165  RH  073%=      5-min Rain = 0
KBY1 260127Z 12005KT 21/16 A2989 RMK A01 T02140164  RH  073%=      5-min Rain = 0
KBY1 260128Z 13006KT 21/16 A2989 RMK A01 T02130162  RH  073%=      5-min Rain = 0
KBY1 260129Z 12006KT 21/16 A2989 RMK A01 T02140162  RH  073%=      5-min Rain = 0
KBY1 260130Z 13006KT 21/16 A2989 RMK A01 T02130164  RH  074%=      5-min Rain = 0
KBY1 260131Z 13005KT 21/16 A2989 RMK A01 T02120163  RH  074%=      5-min Rain = 0
KBY1 260132Z 09005KT 21/16 A2989 RMK A01 T02120163  RH  074%=      5-min Rain = 0
KBY1 260133Z 09006KT 21/17 A2989 RMK A01 T02110165  RH  075%=      5-min Rain = 0
KBY1 260134Z 10006KT 21/16 A2989 RMK A01 T02100163  RH  074%=      5-min Rain = 0
KBY1 260135Z 08006KT 21/16 A2989 RMK A01 T02110163  RH  074%=      5-min Rain = 0
KBY1 260136Z 09006KT 21/17 A2989 RMK A01 T02100165  RH  075%=      5-min Rain = 0
KBY1 260137Z 08006KT 21/17 A2989 RMK A01 T02090165  RH  076%=      5-min Rain = 0
KBY1 260138Z 08006KT 21/16 A2989 RMK A01 T02070164  RH  076%=      5-min Rain = 0
KBY1 260139Z 08005KT 21/17 A2989 RMK A01 T02070165  RH  077%=      5-min Rain = 0
KBY1 260140Z 12005KT 21/16 A2989 RMK A01 T02070163  RH  076%=      5-min Rain = 0
KBY1 260141Z 10004KT 21/16 A299 RMK A01 T02070164  RH  076%=      5-min Rain = 0
KBY1 260142Z 09005KT 21/16 A299 RMK A01 T02070164  RH  076%=      5-min Rain = 0
KBY1 260143Z 08004KT 21/16 A299 RMK A01 T02070164  RH  076%=      5-min Rain = 0
KBY1 260144Z 09004KT 21/17 A299 RMK A01 T02070165  RH  077%=      5-min Rain = 0
KBY1 260145Z 10005KT 21/17 A299 RMK A01 T02060166  RH  078%=      5-min Rain = 0
KBY1 260146Z 10005KT 21/17 A299 RMK A01 T02050165  RH  078%=      5-min Rain = 0
KBY1 260147Z 10006KT 21/17 A299 RMK A01 T02050165  RH  078%=      5-min Rain = 0
KBY1 260148Z 10005KT 21/17 A299 RMK A01 T02050166  RH  079%=      5-min Rain = 0
KBY1 260149Z 10005KT 20/17 A299 RMK A01 T02030167  RH  080%=      5-min Rain = 0
KBY1 260150Z 09006KT 20/17 A299 RMK A01 T02020166  RH  080%=      5-min Rain = 0
KBY1 260151Z 10006KT 20/17 A299 RMK A01 T02020166  RH  080%=      5-min Rain = 0
KBY1 260152Z 10005KT 20/16 A299 RMK A01 T02020163  RH  078%=      5-min Rain = 0
KBY1 260153Z 07005KT 21/16 A299 RMK A01 T02050164  RH  078%=      5-min Rain = 0
KBY1 260154Z 06005KT 21/17 A299 RMK A01 T02050165  RH  078%=      5-min Rain = 0
KBY1 260155Z 09004KT 20/16 A299 RMK A01 T02040163  RH  077%=      5-min Rain = 0
KBY1 260156Z 09005KT 20/16 A299 RMK A01 T02040164  RH  077%=      5-min Rain = 0
KBY1 260157Z 08006KT 20/16 A299 RMK A01 T02040163  RH  077%=      5-min Rain = 0
KBY1 260158Z 10004KT 20/16 A299 RMK A01 T02040163  RH  078%=      5-min Rain = 0
KBY1 260159Z 09004KT 20/16 A299 RMK A01 T02030161  RH  076%=      5-min Rain = 0
KBY1 260200Z 09007KT 20/16 A299 RMK A01 T02040162  RH  077%=      5-min Rain = 0
KBY1 260201Z 08007KT 20/16 A299 RMK A01 T02040162  RH  077%=      5-min Rain = 0
KBY1 260202Z 07006KT 20/16 A299 RMK A01 T02030163  RH  078%=      5-min Rain = 0
KBY1 260203Z 10008KT 20/16 A299 RMK A01 T02030163  RH  078%=      5-min Rain = 0
KBY1 260204Z 11004KT 20/16 A299 RMK A01 T02030158  RH  076%=      5-min Rain = 0
KBY1 260205Z 09008G14KT 20/16 A299 RMK A01 T02040159  RH  075%=      5-min Rain = 0
KBY1 260206Z 13005KT 21/16 A299 RMK A01 T02050158  RH  074%=      5-min Rain = 0
KBY1 260207Z 09004KT 21/16 A299 RMK A01 T02060158  RH  074%=      5-min Rain = 0
KBY1 260208Z 12004KT 21/16 A299 RMK A01 T02060160  RH  075%=      5-min Rain = 0
KBY1 260209Z 10005KT 21/16 A299 RMK A01 T02050161  RH  076%=      5-min Rain = 0
KBY1 260210Z 10005KT 20/16 A299 RMK A01 T02040161  RH  076%=      5-min Rain = 0
KBY1 260211Z 12005KT 20/16 A299 RMK A01 T02020160  RH  076%=      5-min Rain = 0
KBY1 260212Z 14005KT 20/16 A299 RMK A01 T02020157  RH  075%=      5-min Rain = 0
KBY1 260213Z 14006KT 20/15 A299 RMK A01 T02030154  RH  074%=      5-min Rain = 0
KBY1 260214Z 12006KT 20/15 A299 RMK A01 T02040154  RH  073%=      5-min Rain = 0
KBY1 260215Z 10008KT 21/16 A299 RMK A01 T02050156  RH  073%=      5-min Rain = 0
KBY1 260216Z 09006KT 21/16 A299 RMK A01 T02050159  RH  075%=      5-min Rain = 0
KBY1 260217Z 09005KT 20/16 A2991 RMK A01 T02030160  RH  076%=      5-min Rain = 0
KBY1 260218Z 08007KT 20/16 A299 RMK A01 T02010160  RH  077%=      5-min Rain = 0
KBY1 260219Z 09007KT 20/16 A299 RMK A01 T02000160  RH  077%=      5-min Rain = 0
KBY1 260220Z 09005KT 20/16 A299 RMK A01 T01990159  RH  078%=      5-min Rain = 0
KBY1 260221Z 09007KT 20/16 A299 RMK A01 T01980159  RH  078%=      5-min Rain = 0
KBY1 260222Z 08007KT 20/16 A299 RMK A01 T01980160  RH  079%=      5-min Rain = 0
KBY1 260223Z 09008KT 20/16 A299 RMK A01 T01970160  RH  079%=      5-min Rain = 0
KBY1 260224Z 08007KT 20/16 A299 RMK A01 T01970158  RH  078%=      5-min Rain = 0
KBY1 260225Z 10006KT 20/16 A299 RMK A01 T01980158  RH  078%=      5-min Rain = 0
KBY1 260226Z 09006KT 20/16 A299 RMK A01 T01980158  RH  078%=      5-min Rain = 0
KBY1 260227Z 10008KT 20/16 A299 RMK A01 T01990157  RH  077%=      5-min Rain = 0
KBY1 260228Z 12007KT 20/16 A299 RMK A01 T01990155  RH  076%=      5-min Rain = 0
KBY1 260229Z 12004KT 20/15 A299 RMK A01 T02020150  RH  072%=      5-min Rain = 0
KBY1 260230Z 11005KT 21/15 A299 RMK A01 T02050151  RH  071%=      5-min Rain = 0
KBY1 260231Z 14007KT 21/15 A299 RMK A01 T02070149  RH  069%=      5-min Rain = 0
KBY1 260232Z 15008G13KT 21/15 A299 RMK A01 T02100150  RH  069%=      5-min Rain = 0
KBY1 260233Z 07004KT 21/15 A299 RMK A01 T02100154  RH  071%=      5-min Rain = 0
KBY1 260234Z 11007KT 21/15 A2989 RMK A01 T02080154  RH  071%=      5-min Rain = 0
KBY1 260235Z 13005KT 21/16 A299 RMK A01 T02070155  RH  072%=      5-min Rain = 0
KBY1 260236Z 12004KT 21/16 A2989 RMK A01 T02050156  RH  073%=      5-min Rain = 0
KBY1 260237Z 12005KT 20/15 A299 RMK A01 T02030154  RH  073%=      5-min Rain = 0
KBY1 260238Z 09004KT 20/15 A2989 RMK A01 T02030154  RH  074%=      5-min Rain = 0
KBY1 260239Z 13005KT 20/15 A299 RMK A01 T02030154  RH  074%=      5-min Rain = 0
KBY1 260240Z 09003KT 20/15 A2989 RMK A01 T02030154  RH  074%=      5-min Rain = 0
KBY1 260241Z 11003KT 20/15 A2989 RMK A01 T02030154  RH  074%=      5-min Rain = 0
KBY1 260242Z 09005KT 20/15 A2989 RMK A01 T02030154  RH  074%=      5-min Rain = 0
KBY1 260243Z 11006KT 20/15 A2989 RMK A01 T02020154  RH  074%=      5-min Rain = 0
KBY1 260244Z 12005KT 20/16 A2989 RMK A01 T02020155  RH  074%=      5-min Rain = 0
KBY1 260245Z 13004KT 20/16 A2989 RMK A01 T02010155  RH  075%=      5-min Rain = 0
KBY1 260246Z 16006KT 20/15 A2989 RMK A01 T02010154  RH  074%=      5-min Rain = 0
KBY1 260247Z 15005KT 20/15 A2989 RMK A01 T02020153  RH  073%=      5-min Rain = 0
KBY1 260248Z 14006KT 20/15 A299 RMK A01 T02030153  RH  073%=      5-min Rain = 0
KBY1 260249Z 13005KT 20/15 A299 RMK A01 T02030154  RH  074%=      5-min Rain = 0
KBY1 260250Z 11006KT 20/16 A2989 RMK A01 T02030155  RH  074%=      5-min Rain = 0
KBY1 260251Z 11005KT 20/16 A299 RMK A01 T02010155  RH  075%=      5-min Rain = 0
KBY1 260252Z 11005KT 20/16 A2989 RMK A01 T01990155  RH  076%=      5-min Rain = 0
KBY1 260253Z 10005KT 20/16 A2989 RMK A01 T01980156  RH  077%=      5-min Rain = 0
KBY1 260254Z 10006KT 20/16 A2989 RMK A01 T01960156  RH  077%=      5-min Rain = 0
KBY1 260255Z 11005KT 20/15 A2989 RMK A01 T01960154  RH  077%=      5-min Rain = 0
KBY1 260256Z 10005KT 20/16 A2989 RMK A01 T01960155  RH  077%=      5-min Rain = 0
KBY1 260257Z 12004KT 20/16 A2989 RMK A01 T01970155  RH  077%=      5-min Rain = 0
KBY1 260258Z 11006KT 20/16 A2989 RMK A01 T01960155  RH  077%=      5-min Rain = 0
KBY1 260259Z 09006KT 20/16 A2989 RMK A01 T01950155  RH  078%=      5-min Rain = 0
KBY1 260300Z 09005KT 19/16 A2989 RMK A01 T01940155  RH  078%=      5-min Rain = 0
KBY1 260301Z 09005KT 19/16 A2989 RMK A01 T01940156  RH  079%=      5-min Rain = 0
KBY1 260302Z 07005KT 19/15 A2989 RMK A01 T01940154  RH  078%=      5-min Rain = 0
KBY1 260303Z 08005KT 19/16 A2989 RMK A01 T01940156  RH  079%=      5-min Rain = 0
KBY1 260304Z 08006KT 19/16 A2989 RMK A01 T01930156  RH  079%=      5-min Rain = 0
KBY1 260305Z 09005KT 19/16 A2989 RMK A01 T01920155  RH  079%=      5-min Rain = 0
KBY1 260306Z 10004KT 19/16 A2989 RMK A01 T01930155  RH  079%=      5-min Rain = 0
KBY1 260307Z 08005KT 19/16 A2989 RMK A01 T01930155  RH  078%=      5-min Rain = 0
KBY1 260308Z 09006KT 19/16 A2989 RMK A01 T01930155  RH  079%=      5-min Rain = 0
KBY1 260309Z 10006KT 19/16 A2989 RMK A01 T01930155  RH  079%=      5-min Rain = 0
KBY1 260310Z 11005KT 19/16 A299 RMK A01 T01920156  RH  079%=      5-min Rain = 0
KBY1 260311Z 11005KT 19/16 A299 RMK A01 T01920156  RH  080%=      5-min Rain = 0
KBY1 260312Z 11003KT 19/16 A299 RMK A01 T01910155  RH  079%=      5-min Rain = 0
KBY1 260313Z 10004KT 19/16 A299 RMK A01 T01910155  RH  080%=      5-min Rain = 0
KBY1 260314Z 10003KT 19/16 A299 RMK A01 T01900155  RH  080%=      5-min Rain = 0
KBY1 260315Z 09004KT 19/16 A299 RMK A01 T01900155  RH  080%=      5-min Rain = 0
KBY1 260316Z 09005KT 19/16 A299 RMK A01 T01900155  RH  080%=      5-min Rain = 0
KBY1 260317Z 11004KT 19/16 A299 RMK A01 T01900155  RH  080%=      5-min Rain = 0
KBY1 260318Z 12004KT 19/16 A299 RMK A01 T01890155  RH  080%=      5-min Rain = 0
KBY1 260319Z 10003KT 19/15 A299 RMK A01 T01890154  RH  080%=      5-min Rain = 0
KBY1 260320Z 13003KT 19/15 A299 RMK A01 T01890154  RH  080%=      5-min Rain = 0
KBY1 260321Z 12003KT 19/15 A299 RMK A01 T01890154  RH  080%=      5-min Rain = 0
KBY1 260322Z 09004KT 19/15 A299 RMK A01 T01890153  RH  080%=      5-min Rain = 0
KBY1 260323Z 10005KT 19/15 A299 RMK A01 T01890153  RH  080%=      5-min Rain = 0
KBY1 260324Z 10004KT 19/15 A299 RMK A01 T01890153  RH  079%=      5-min Rain = 0
KBY1 260325Z 10003KT 19/15 A299 RMK A01 T01900154  RH  080%=      5-min Rain = 0
KBY1 260326Z 08004KT 19/15 A299 RMK A01 T01890154  RH  080%=      5-min Rain = 0
KBY1 260327Z 09005KT 19/15 A299 RMK A01 T01890154  RH  080%=      5-min Rain = 0
KBY1 260328Z 09005KT 19/15 A299 RMK A01 T01890153  RH  080%=      5-min Rain = 0
KBY1 260329Z 09004KT 19/15 A299 RMK A01 T01890153  RH  080%=      5-min Rain = 0
KBY1 260330Z 08004KT 19/15 A299 RMK A01 T01890154  RH  080%=      5-min Rain = 0
KBY1 260331Z 11003KT 19/15 A299 RMK A01 T01880154  RH  081%=      5-min Rain = 0
KBY1 260332Z 11004KT 19/15 A299 RMK A01 T01870154  RH  081%=      5-min Rain = 0
KBY1 260333Z 11003KT 19/15 A299 RMK A01 T01890154  RH  080%=      5-min Rain = 0
KBY1 260334Z 11003KT 19/15 A2991 RMK A01 T01900154  RH  080%=      5-min Rain = 0
KBY1 260335Z 10003KT 19/15 A2991 RMK A01 T01900153  RH  079%=      5-min Rain = 0
KBY1 260336Z 10003KT 19/15 A2991 RMK A01 T01910153  RH  078%=      5-min Rain = 0
KBY1 260337Z 09003KT 19/15 A2991 RMK A01 T01920153  RH  078%=      5-min Rain = 0
KBY1 260338Z 12003KT 19/16 A2991 RMK A01 T01920155  RH  079%=      5-min Rain = 0
KBY1 260339Z 12003KT 19/16 A2991 RMK A01 T01930156  RH  079%=      5-min Rain = 0
KBY1 260340Z 08003KT 19/16 A2991 RMK A01 T01940155  RH  078%=      5-min Rain = 0
KBY1 260341Z 09003KT 20/16 A2991 RMK A01 T01950155  RH  078%=      5-min Rain = 0
KBY1 260342Z 12004KT 19/16 A299 RMK A01 T01940156  RH  079%=      5-min Rain = 0
KBY1 260343Z 15006KT 19/16 A299 RMK A01 T01940160  RH  081%=      5-min Rain = 0
KBY1 260344Z 15005KT 20/16 A299 RMK A01 T01960162  RH  081%=      5-min Rain = 0
KBY1 260345Z 12003KT 20/16 A299 RMK A01 T01980162  RH  080%=      5-min Rain = 0
KBY1 260346Z 14004KT 20/16 A2991 RMK A01 T01990162  RH  080%=      5-min Rain = 0
KBY1 260347Z 15002KT 20/16 A2991 RMK A01 T01990163  RH  080%=      5-min Rain = 0
KBY1 260348Z 16002KT 20/16 A2991 RMK A01 T01980163  RH  080%=      5-min Rain = 0
KBY1 260349Z 16003KT 20/16 A2991 RMK A01 T01990162  RH  079%=      5-min Rain = 0
KBY1 260350Z 16004KT 20/16 A2991 RMK A01 T02000163  RH  079%=      5-min Rain = 0
KBY1 260351Z 16005KT 20/16 A2991 RMK A01 T02010163  RH  078%=      5-min Rain = 0
KBY1 260352Z 15006KT 20/16 A2991 RMK A01 T02020164  RH  078%=      5-min Rain = 0
KBY1 260353Z 16005KT 20/16 A2991 RMK A01 T02030164  RH  078%=      5-min Rain = 0
KBY1 260354Z 13003KT 21/17 A2991 RMK A01 T02050165  RH  078%=      5-min Rain = 0
KBY1 260355Z 13004KT 20/17 A2991 RMK A01 T02040165  RH  078%=      5-min Rain = 0
KBY1 260356Z 13004KT 20/17 A2991 RMK A01 T02030165  RH  079%=      5-min Rain = 0
KBY1 260357Z 10002KT 20/16 A2991 RMK A01 T02030164  RH  078%=      5-min Rain = 0
KBY1 260358Z 11003KT 20/16 A2991 RMK A01 T02040164  RH  078%=      5-min Rain = 0
KBY1 260359Z 13006KT 20/17 A2991 RMK A01 T02040165  RH  078%=      5-min Rain = 0
KBY1 260400Z 13005KT 20/17 A2992 RMK A01 T02040167  RH  079%=      5-min Rain = 0
KBY1 260401Z 14006KT 21/17 A2992 RMK A01 T02050167  RH  079%=      5-min Rain = 0
KBY1 260402Z 15005KT 21/17 A2992 RMK A01 T02050168  RH  079%=      5-min Rain = 0
KBY1 260403Z 10003KT 21/17 A2992 RMK A01 T02050168  RH  079%=      5-min Rain = 0
KBY1 260404Z 10005KT 21/17 A2992 RMK A01 T02050167  RH  079%=      5-min Rain = 0
KBY1 260405Z 12006KT 20/17 A2992 RMK A01 T02040168  RH  080%=      5-min Rain = 0
KBY1 260406Z 09004KT 20/17 A2992 RMK A01 T02040169  RH  080%=      5-min Rain = 0
KBY1 260407Z 12006KT 20/17 A2992 RMK A01 T02020169  RH  081%=      5-min Rain = 0
KBY1 260408Z 13006KT 20/17 A2992 RMK A01 T02010171  RH  083%=      5-min Rain = 0
KBY1 260409Z 13008KT 20/17 A2992 RMK A01 T02020171  RH  083%=      5-min Rain = 0
KBY1 260410Z 13011KT 20/17 A2992 RMK A01 T02040172  RH  082%=      5-min Rain = 0
KBY1 260411Z 11007KT 21/17 A2992 RMK A01 T02050172  RH  081%=      5-min Rain = 0
KBY1 260412Z 15006KT 21/17 A2992 RMK A01 T02070173  RH  081%=      5-min Rain = 0
KBY1 260413Z 10005KT 21/17 A2992 RMK A01 T02070174  RH  081%=      5-min Rain = 0
KBY1 260414Z 11005KT 21/17 A2992 RMK A01 T02050172  RH  081%=      5-min Rain = 0
KBY1 260415Z 13007KT 20/17 A2992 RMK A01 T02040173  RH  082%=      5-min Rain = 0
KBY1 260416Z 10007KT 21/17 A2992 RMK A01 T02060173  RH  082%=      5-min Rain = 0
KBY1 260417Z 09006KT 21/17 A2992 RMK A01 T02050172  RH  081%=      5-min Rain = 0
KBY1 260418Z 10005KT 20/17 A2992 RMK A01 T02030172  RH  082%=      5-min Rain = 0
KBY1 260419Z 08006KT 20/17 A2992 RMK A01 T02020172  RH  083%=      5-min Rain = 0
KBY1 260420Z 06005KT 20/17 A2992 RMK A01 T02010169  RH  082%=      5-min Rain = 0
KBY1 260421Z 06004KT 20/17 A2992 RMK A01 T01990166  RH  081%=      5-min Rain = 0
KBY1 260422Z 09004KT 20/17 A2992 RMK A01 T01990167  RH  082%=      5-min Rain = 0
KBY1 260423Z 08004KT 20/17 A2993 RMK A01 T01970166  RH  082%=      5-min Rain = 0
KBY1 260424Z 06006KT 20/17 A2993 RMK A01 T01960166  RH  083%=      5-min Rain = 0
KBY1 260425Z 06006KT 20/17 A2993 RMK A01 T01950166  RH  083%=      5-min Rain = 0
KBY1 260426Z 06004KT 20/17 A2993 RMK A01 T01950167  RH  084%=      5-min Rain = 0
KBY1 260427Z 07005KT 20/17 A2993 RMK A01 T01950167  RH  084%=      5-min Rain = 0
KBY1 260428Z 07006KT 19/17 A2993 RMK A01 T01940167  RH  084%=      5-min Rain = 0
KBY1 260429Z 06006KT 19/17 A2993 RMK A01 T01940167  RH  084%=      5-min Rain = 0
KBY1 260430Z 08006KT 19/17 A2993 RMK A01 T01940167  RH  084%=      5-min Rain = 0
KBY1 260431Z 07005KT 19/17 A2993 RMK A01 T01930167  RH  085%=      5-min Rain = 0
KBY1 260432Z 06003KT 19/17 A2993 RMK A01 T01930167  RH  085%=      5-min Rain = 0
KBY1 260433Z 07004KT 19/17 A2993 RMK A01 T01920167  RH  085%=      5-min Rain = 0
KBY1 260434Z 07005KT 19/17 A2993 RMK A01 T01920167  RH  085%=      5-min Rain = 0
KBY1 260435Z 06005KT 19/17 A2993 RMK A01 T01910167  RH  086%=      5-min Rain = 0
KBY1 260436Z 08005KT 19/17 A2994 RMK A01 T01900168  RH  087%=      5-min Rain = 0
KBY1 260437Z 06005KT 19/17 A2994 RMK A01 T01910169  RH  087%=      5-min Rain = 0
KBY1 260438Z 07004KT 19/17 A2994 RMK A01 T01920169  RH  086%=      5-min Rain = 0
KBY1 260439Z 08004KT 19/17 A2994 RMK A01 T01920169  RH  086%=      5-min Rain = 0
KBY1 260440Z 06004KT 19/17 A2994 RMK A01 T01920169  RH  086%=      5-min Rain = 0
KBY1 260441Z 05004KT 19/17 A2994 RMK A01 T01920169  RH  086%=      5-min Rain = 0
KBY1 260442Z 05004KT 19/17 A2994 RMK A01 T01920170  RH  087%=      5-min Rain = 0
KBY1 260443Z 05004KT 19/17 A2994 RMK A01 T01930170  RH  087%=      5-min Rain = 0
KBY1 260444Z 04004KT 19/17 A2994 RMK A01 T01930170  RH  087%=      5-min Rain = 0
KBY1 260445Z 04004KT 19/17 A2994 RMK A01 T01940171  RH  087%=      5-min Rain = 0
KBY1 260446Z 04005KT 20/17 A2994 RMK A01 T01950171  RH  086%=      5-min Rain = 0
KBY1 260447Z 04006KT 20/17 A2994 RMK A01 T01950171  RH  086%=      5-min Rain = 0
KBY1 260448Z 04006KT 20/17 A2994 RMK A01 T01950172  RH  087%=      5-min Rain = 0
KBY1 260449Z 04004KT 20/17 A2994 RMK A01 T01960172  RH  086%=      5-min Rain = 0
KBY1 260450Z 03005KT 20/17 A2994 RMK A01 T01980173  RH  085%=      5-min Rain = 0
KBY1 260451Z 03004KT 20/17 A2994 RMK A01 T01980173  RH  085%=      5-min Rain = 0
KBY1 260452Z 02004KT 20/17 A2994 RMK A01 T01980174  RH  086%=      5-min Rain = 0
KBY1 260453Z 03005KT 20/17 A2994 RMK A01 T01970174  RH  086%=      5-min Rain = 0
KBY1 260454Z 04004KT 20/17 A2994 RMK A01 T01970174  RH  087%=      5-min Rain = 0
KBY1 260455Z 03005KT 20/17 A2994 RMK A01 T01960174  RH  087%=      5-min Rain = 0
KBY1 260456Z 03005KT 20/17 A2994 RMK A01 T01970174  RH  087%=      5-min Rain = 0
KBY1 260457Z 04007KT 20/18 A2994 RMK A01 T01970175  RH  087%=      5-min Rain = 0
KBY1 260458Z 04006KT 20/18 A2994 RMK A01 T01970175  RH  087%=      5-min Rain = 0
KBY1 260459Z 03005KT 20/18 A2994 RMK A01 T01970176  RH  088%=      5-min Rain = 0

Page generated in 0.0326 seconds.